Wetterdaten: Samstag, 04.01.2020
Datum Zeit Temp. Aussen Temp. o. S. Temp +5cm Feuchte Auss Luftdruck Regen Sonnenschein Regendauer Solar Windben Empfang
04.01.2020 00:00 4,2 C 3,3 C 2,8 C 97 % 1028,4 hPa 0,0 l/m 0 min 0 min 0 W/m 0,0 km/h (0 Bft) 100,00 %
04.01.2020 00:02 4,2 C 3,3 C 2,8 C 97 % 1028,4 hPa 0,0 l/m 0 min 0 min 0 W/m 0,0 km/h (0 Bft) 97,78 %
04.01.2020 00:04 4,2 C 2,8 C 2,8 C 97 % 1028,4 hPa 0,0 l/m 0 min 0 min 0 W/m 0,0 km/h (0 Bft) 100,00 %
04.01.2020 00:08 4,1 C 2,8 C 2,8 C 97 % 1028,5 hPa 0,0 l/m 0 min 0 min 0 W/m 9,7 km/h (2 Bft) 100,00 %
04.01.2020 00:10 4,1 C 2,8 C 2,8 C 97 % 1028,5 hPa 0,0 l/m 0 min 0 min 0 W/m 0,0 km/h (0 Bft) 100,00 %
04.01.2020 00:12 4,1 C 2,8 C 2,2 C 97 % 1028,6 hPa 0,0 l/m 0 min 0 min 0 W/m 6,4 km/h (2 Bft) 100,00 %
04.01.2020 00:14 4,1 C 2,8 C 2,2 C 97 % 1028,5 hPa 0,0 l/m 0 min 0 min 0 W/m 6,4 km/h (2 Bft) 100,00 %
04.01.2020 00:16 4,0 C 2,8 C 2,2 C 97 % 1028,4 hPa 0,0 l/m 0 min 0 min 0 W/m 6,4 km/h (2 Bft) 100,00 %
04.01.2020 00:18 4,0 C 2,8 C 2,2 C 97 % 1028,4 hPa 0,0 l/m 0 min 0 min 0 W/m 0,0 km/h (0 Bft) 100,00 %
04.01.2020 00:20 3,9 C 2,8 C 2,2 C 97 % 1028,4 hPa 0,0 l/m 0 min 0 min 0 W/m 3,2 km/h (1 Bft) 100,00 %
04.01.2020 00:22 3,9 C 2,8 C 2,2 C 97 % 1028,4 hPa 0,0 l/m 0 min 0 min 0 W/m 3,2 km/h (1 Bft) 100,00 %
04.01.2020 00:24 3,9 C 2,8 C 2,2 C 97 % 1028,5 hPa 0,0 l/m 0 min 0 min 0 W/m 0,0 km/h (0 Bft) 100,00 %
04.01.2020 00:26 3,9 C 2,8 C 2,2 C 97 % 1028,5 hPa 0,0 l/m 0 min 0 min 0 W/m 6,4 km/h (2 Bft) 95,65 %
04.01.2020 00:28 3,8 C 2,8 C 2,2 C 97 % 1028,6 hPa 0,0 l/m 0 min 0 min 0 W/m 3,2 km/h (1 Bft) 100,00 %
04.01.2020 00:30 3,8 C 2,2 C 2,2 C 97 % 1028,6 hPa 0,0 l/m 0 min 0 min 0 W/m 0,0 km/h (0 Bft) 100,00 %
04.01.2020 00:32 3,8 C 2,2 C 2,2 C 97 % 1028,6 hPa 0,0 l/m 0 min 0 min 0 W/m 0,0 km/h (0 Bft) 97,87 %
04.01.2020 00:34 3,8 C 2,2 C 2,2 C 97 % 1028,8 hPa 0,0 l/m 0 min 0 min 0 W/m 0,0 km/h (0 Bft) 95,74 %
04.01.2020 00:36 3,7 C 2,2 C 2,2 C 97 % 1028,8 hPa 0,0 l/m 0 min 0 min 0 W/m 0,0 km/h (0 Bft) 97,83 %
04.01.2020 00:38 3,7 C 2,2 C 2,2 C 97 % 1028,8 hPa 0,0 l/m 0 min 0 min 0 W/m 0,0 km/h (0 Bft) 95,74 %
04.01.2020 00:40 3,7 C 2,2 C 2,2 C 97 % 1028,8 hPa 0,0 l/m 0 min 0 min 0 W/m 0,0 km/h (0 Bft) 97,87 %
04.01.2020 00:42 3,6 C 2,8 C 2,2 C 97 % 1028,8 hPa 0,0 l/m 0 min 0 min 0 W/m 0,0 km/h (0 Bft) 97,87 %
04.01.2020 00:44 3,6 C 2,8 C 2,2 C 97 % 1028,9 hPa 0,0 l/m 0 min 0 min 0 W/m 0,0 km/h (0 Bft) 97,87 %
04.01.2020 00:46 3,6 C 2,8 C 2,2 C 97 % 1028,9 hPa 0,0 l/m 0 min 0 min 0 W/m 3,2 km/h (1 Bft) 97,87 %
04.01.2020 00:48 3,6 C 2,8 C 2,2 C 97 % 1028,8 hPa 0,0 l/m 0 min 0 min 0 W/m 6,4 km/h (2 Bft) 97,83 %
04.01.2020 00:50 3,6 C 2,8 C 2,2 C 97 % 1028,7 hPa 0,0 l/m 0 min 0 min 0 W/m 3,2 km/h (1 Bft) 97,87 %
04.01.2020 00:52 3,6 C 2,8 C 2,2 C 97 % 1028,8 hPa 0,0 l/m 0 min 0 min 0 W/m 0,0 km/h (0 Bft) 97,87 %
04.01.2020 00:54 3,6 C 2,8 C 2,8 C 97 % 1028,7 hPa 0,0 l/m 0 min 0 min 0 W/m 9,7 km/h (2 Bft) 97,87 %
04.01.2020 00:56 3,7 C 2,8 C 2,8 C 97 % 1028,8 hPa 0,0 l/m 0 min 0 min 0 W/m 3,2 km/h (1 Bft) 97,87 %
04.01.2020 00:58 3,7 C 2,8 C 2,8 C 97 % 1028,7 hPa 0,0 l/m 0 min 0 min 0 W/m 9,7 km/h (2 Bft) 97,87 %
04.01.2020 01:00 3,7 C 2,8 C 2,8 C 97 % 1028,6 hPa 0,0 l/m 0 min 0 min 0 W/m 3,2 km/h (1 Bft) 97,83 %
04.01.2020 01:02 3,7 C 2,8 C 2,2 C 97 % 1028,6 hPa 0,0 l/m 0 min 0 min 0 W/m 6,4 km/h (2 Bft) 97,87 %
04.01.2020 01:04 3,7 C 2,8 C 2,2 C 97 % 1028,6 hPa 0,0 l/m 0 min 0 min 0 W/m 3,2 km/h (1 Bft) 95,74 %
04.01.2020 01:06 3,7 C 2,8 C 2,2 C 97 % 1028,5 hPa 0,0 l/m 0 min 0 min 0 W/m 3,2 km/h (1 Bft) 93,62 %
04.01.2020 01:08 3,7 C 2,8 C 2,2 C 97 % 1028,6 hPa 0,0 l/m 0 min 0 min 0 W/m 3,2 km/h (1 Bft) 93,62 %
04.01.2020 01:10 3,7 C 2,8 C 2,2 C 97 % 1028,6 hPa 0,0 l/m 0 min 0 min 0 W/m 0,0 km/h (0 Bft) 93,62 %
04.01.2020 01:12 3,7 C 2,8 C 2,2 C 97 % 1028,6 hPa 0,0 l/m 0 min 0 min 0 W/m 0,0 km/h (0 Bft) 91,30 %
04.01.2020 01:14 3,7 C 2,8 C 2,2 C 97 % 1028,7 hPa 0,0 l/m 0 min 0 min 0 W/m 3,2 km/h (1 Bft) 93,62 %
04.01.2020 01:16 3,7 C 2,8 C 2,2 C 97 % 1028,8 hPa 0,0 l/m 0 min 0 min 0 W/m 3,2 km/h (1 Bft) 93,62 %
04.01.2020 01:18 3,6 C 2,2 C 2,2 C 97 % 1028,9 hPa 0,0 l/m 0 min 0 min 0 W/m 0,0 km/h (0 Bft) 93,62 %
04.01.2020 01:20 3,6 C 2,2 C 2,2 C 97 % 1028,9 hPa 0,0 l/m 0 min 0 min 0 W/m 3,2 km/h (1 Bft) 93,62 %
04.01.2020 01:22 3,6 C 2,2 C 2,2 C 97 % 1028,9 hPa 0,0 l/m 0 min 0 min 0 W/m 0,0 km/h (0 Bft) 91,49 %
04.01.2020 01:24 3,6 C 2,2 C 2,2 C 97 % 1028,9 hPa 0,0 l/m 0 min 0 min 0 W/m 3,2 km/h (1 Bft) 93,48 %
04.01.2020 01:26 3,6 C 2,2 C 2,2 C 97 % 1028,8 hPa 0,0 l/m 0 min 0 min 0 W/m 0,0 km/h (0 Bft) 93,62 %
04.01.2020 01:28 3,6 C 2,2 C 2,2 C 97 % 1028,8 hPa 0,0 l/m 0 min 0 min 0 W/m 3,2 km/h (1 Bft) 91,49 %
04.01.2020 01:30 3,5 C 2,2 C 2,2 C 97 % 1028,8 hPa 0,0 l/m 0 min 0 min 0 W/m 3,2 km/h (1 Bft) 91,49 %
04.01.2020 01:32 3,5 C 2,2 C 1,7 C 97 % 1028,8 hPa 0,0 l/m 0 min 0 min 0 W/m 3,2 km/h (1 Bft) 93,62 %
04.01.2020 01:34 3,5 C 2,2 C 1,7 C 97 % 1028,7 hPa 0,0 l/m 0 min 0 min 0 W/m 3,2 km/h (1 Bft) 95,65 %
04.01.2020 01:36 3,4 C 2,2 C 1,7 C 97 % 1028,7 hPa 0,0 l/m 0 min 0 min 0 W/m 3,2 km/h (1 Bft) 95,74 %
04.01.2020 01:38 3,4 C 2,2 C 1,7 C 97 % 1028,6 hPa 0,0 l/m 0 min 0 min 0 W/m 0,0 km/h (0 Bft) 95,74 %
04.01.2020 01:40 3,4 C 2,2 C 2,2 C 97 % 1028,6 hPa 0,0 l/m 0 min 0 min 0 W/m 0,0 km/h (0 Bft) 95,74 %
04.01.2020 01:42 3,4 C 2,2 C 1,7 C 97 % 1028,7 hPa 0,0 l/m 0 min 0 min 0 W/m 3,2 km/h (1 Bft) 93,62 %
04.01.2020 01:44 3,4 C 2,2 C 1,7 C 97 % 1028,8 hPa 0,0 l/m 0 min 0 min 0 W/m 6,4 km/h (2 Bft) 93,62 %
04.01.2020 01:46 3,4 C 2,2 C 1,7 C 97 % 1028,8 hPa 0,0 l/m 0 min 0 min 0 W/m 0,0 km/h (0 Bft) 95,65 %
04.01.2020 01:48 3,4 C 2,2 C 2,2 C 97 % 1028,9 hPa 0,0 l/m 0 min 0 min 0 W/m 6,4 km/h (2 Bft) 95,74 %
04.01.2020 01:50 3,3 C 2,2 C 1,7 C 97 % 1028,9 hPa 0,0 l/m 0 min 0 min 0 W/m 0,0 km/h (0 Bft) 97,87 %
04.01.2020 01:52 3,3 C 2,2 C 1,7 C 97 % 1028,9 hPa 0,0 l/m 0 min 0 min 0 W/m 3,2 km/h (1 Bft) 95,74 %
04.01.2020 01:54 3,3 C 2,2 C 1,7 C 97 % 1028,9 hPa 0,0 l/m 0 min 0 min 0 W/m 6,4 km/h (2 Bft) 97,87 %
04.01.2020 01:56 3,3 C 2,2 C 1,7 C 97 % 1028,9 hPa 0,0 l/m 0 min 0 min 0 W/m 0,0 km/h (0 Bft) 100,00 %
04.01.2020 01:58 3,3 C 2,2 C 1,7 C 97 % 1028,9 hPa 0,0 l/m 0 min 0 min 0 W/m 3,2 km/h (1 Bft) 100,00 %
04.01.2020 02:00 3,3 C 2,2 C 1,7 C 97 % 1028,9 hPa 0,0 l/m 0 min 0 min 0 W/m 3,2 km/h (1 Bft) 97,87 %
04.01.2020 02:02 3,3 C 2,2 C 1,7 C 97 % 1028,9 hPa 0,0 l/m 0 min 0 min 0 W/m 0,0 km/h (0 Bft) 100,00 %
04.01.2020 02:04 3,3 C 2,2 C 1,7 C 97 % 1028,9 hPa 0,0 l/m 0 min 0 min 0 W/m 0,0 km/h (0 Bft) 100,00 %
04.01.2020 02:06 3,2 C 2,2 C 1,7 C 97 % 1028,8 hPa 0,0 l/m 0 min 0 min 0 W/m 9,7 km/h (2 Bft) 100,00 %
04.01.2020 02:08 3,2 C 2,2 C 1,7 C 97 % 1028,8 hPa 0,0 l/m 0 min 0 min 0 W/m 0,0 km/h (0 Bft) 100,00 %
04.01.2020 02:10 3,2 C 2,2 C 1,7 C 97 % 1028,8 hPa 0,0 l/m 0 min 0 min 0 W/m 0,0 km/h (0 Bft) 100,00 %
04.01.2020 02:12 3,2 C 2,2 C 1,7 C 97 % 1028,8 hPa 0,0 l/m 0 min 0 min 0 W/m 0,0 km/h (0 Bft) 100,00 %
04.01.2020 02:14 3,2 C 2,2 C 1,7 C 97 % 1028,8 hPa 0,0 l/m 0 min 0 min 0 W/m 0,0 km/h (0 Bft) 100,00 %
04.01.2020 02:16 3,2 C 2,2 C 1,7 C 97 % 1028,7 hPa 0,0 l/m 0 min 0 min 0 W/m 0,0 km/h (0 Bft) 100,00 %
04.01.2020 02:18 3,2 C 2,2 C 1,7 C 97 % 1028,8 hPa 0,0 l/m 0 min 0 min 0 W/m 0,0 km/h (0 Bft) 100,00 %
04.01.2020 02:20 3,2 C 2,2 C 1,7 C 97 % 1028,9 hPa 0,0 l/m 0 min 0 min 0 W/m 0,0 km/h (0 Bft) 100,00 %
04.01.2020 02:22 3,2 C 2,2 C 1,7 C 97 % 1028,9 hPa 0,0 l/m 0 min 0 min 0 W/m 0,0 km/h (0 Bft) 100,00 %
04.01.2020 02:24 3,2 C 2,2 C 1,7 C 97 % 1028,8 hPa 0,0 l/m 0 min 0 min 0 W/m 0,0 km/h (0 Bft) 100,00 %
04.01.2020 02:26 3,1 C 2,2 C 1,7 C 97 % 1028,7 hPa 0,0 l/m 0 min 0 min 0 W/m 0,0 km/h (0 Bft) 55,56 %
04.01.2020 02:28 3,1 C 2,2 C 1,7 C 97 % 1028,8 hPa 0,0 l/m 0 min 0 min 0 W/m 0,0 km/h (0 Bft) 100,00 %
04.01.2020 02:30 3,1 C 2,2 C 1,7 C 97 % 1028,8 hPa 0,0 l/m 0 min 0 min 0 W/m 0,0 km/h (0 Bft) 100,00 %
04.01.2020 02:32 3,1 C 2,2 C 1,7 C 97 % 1028,7 hPa 0,0 l/m 0 min 0 min 0 W/m 0,0 km/h (0 Bft) 97,83 %
04.01.2020 02:34 3,1 C 2,2 C 1,7 C 97 % 1028,7 hPa 0,0 l/m 0 min 0 min 0 W/m 0,0 km/h (0 Bft) 100,00 %
04.01.2020 02:36 3,1 C 2,2 C 1,7 C 97 % 1028,8 hPa 0,0 l/m 0 min 0 min 0 W/m 0,0 km/h (0 Bft) 100,00 %
04.01.2020 02:38 3,1 C 2,2 C 1,7 C 97 % 1028,8 hPa 0,0 l/m 0 min 0 min 0 W/m 3,2 km/h (1 Bft) 100,00 %
04.01.2020 02:40 3,1 C 2,2 C 1,7 C 97 % 1028,8 hPa 0,0 l/m 0 min 0 min 0 W/m 3,2 km/h (1 Bft) 100,00 %
04.01.2020 02:42 3,1 C 2,2 C 1,7 C 97 % 1028,8 hPa 0,0 l/m 0 min 0 min 0 W/m 3,2 km/h (1 Bft) 100,00 %
04.01.2020 02:44 3,1 C 2,2 C 1,7 C 97 % 1028,9 hPa 0,0 l/m 0 min 0 min 0 W/m 3,2 km/h (1 Bft) 100,00 %
04.01.2020 02:46 3,1 C 2,2 C 1,7 C 97 % 1028,9 hPa 0,0 l/m 0 min 0 min 0 W/m 3,2 km/h (1 Bft) 100,00 %
04.01.2020 02:48 3,1 C 2,2 C 2,2 C 97 % 1028,9 hPa 0,0 l/m 0 min 0 min 0 W/m 6,4 km/h (2 Bft) 100,00 %
04.01.2020 02:50 3,2 C 2,8 C 2,2 C 97 % 1028,9 hPa 0,0 l/m 0 min 0 min 0 W/m 0,0 km/h (0 Bft) 100,00 %
04.01.2020 02:52 3,2 C 2,8 C 2,2 C 97 % 1029,0 hPa 0,0 l/m 0 min 0 min 0 W/m 6,4 km/h (2 Bft) 100,00 %
04.01.2020 02:54 3,2 C 2,8 C 2,2 C 97 % 1029,0 hPa 0,0 l/m 0 min 0 min 0 W/m 9,7 km/h (2 Bft) 100,00 %
04.01.2020 02:56 3,2 C 2,8 C 2,2 C 97 % 1029,1 hPa 0,0 l/m 0 min 0 min 0 W/m 6,4 km/h (2 Bft) 100,00 %
04.01.2020 02:58 3,3 C 2,8 C 2,2 C 97 % 1029,1 hPa 0,0 l/m 0 min 0 min 0 W/m 3,2 km/h (1 Bft) 100,00 %
04.01.2020 03:00 3,3 C 2,8 C 2,2 C 97 % 1029,1 hPa 0,0 l/m 0 min 0 min 0 W/m 3,2 km/h (1 Bft) 100,00 %
04.01.2020 03:02 3,3 C 2,8 C 2,2 C 97 % 1029,1 hPa 0,0 l/m 0 min 0 min 0 W/m 6,4 km/h (2 Bft) 100,00 %
04.01.2020 03:04 3,3 C 2,8 C 2,2 C 97 % 1029,0 hPa 0,0 l/m 0 min 0 min 0 W/m 3,2 km/h (1 Bft) 100,00 %
04.01.2020 03:06 3,4 C 2,8 C 2,2 C 97 % 1029,0 hPa 0,0 l/m 0 min 0 min 0 W/m 6,4 km/h (2 Bft) 100,00 %
04.01.2020 03:08 3,4 C 2,8 C 2,2 C 97 % 1028,9 hPa 0,0 l/m 0 min 0 min 0 W/m 3,2 km/h (1 Bft) 100,00 %
04.01.2020 03:10 3,4 C 2,8 C 2,2 C 97 % 1028,9 hPa 0,0 l/m 0 min 0 min 0 W/m 6,4 km/h (2 Bft) 100,00 %
04.01.2020 03:12 3,4 C 2,8 C 2,2 C 98 % 1029,0 hPa 0,0 l/m 0 min 0 min 0 W/m 3,2 km/h (1 Bft) 100,00 %
04.01.2020 03:14 3,5 C 2,8 C 2,2 C 98 % 1029,0 hPa 0,0 l/m 0 min 0 min 0 W/m 6,4 km/h (2 Bft) 95,74 %
04.01.2020 03:16 3,5 C 2,8 C 2,2 C 98 % 1029,1 hPa 0,0 l/m 0 min 0 min 0 W/m 3,2 km/h (1 Bft) 100,00 %
04.01.2020 03:18 3,5 C 2,8 C 2,2 C 98 % 1029,1 hPa 0,0 l/m 0 min 0 min 0 W/m 3,2 km/h (1 Bft) 100,00 %
04.01.2020 03:20 3,5 C 2,8 C 2,2 C 98 % 1029,1 hPa 0,0 l/m 0 min 0 min 0 W/m 3,2 km/h (1 Bft) 100,00 %
04.01.2020 03:22 3,5 C 2,8 C 2,2 C 98 % 1029,1 hPa 0,0 l/m 0 min 0 min 0 W/m 3,2 km/h (1 Bft) 100,00 %
04.01.2020 03:24 3,5 C 2,8 C 2,2 C 98 % 1029,0 hPa 0,0 l/m 0 min 0 min 0 W/m 3,2 km/h (1 Bft) 100,00 %
04.01.2020 03:26 3,5 C 2,8 C 2,2 C 98 % 1029,0 hPa 0,0 l/m 0 min 0 min 0 W/m 3,2 km/h (1 Bft) 97,87 %
04.01.2020 03:28 3,6 C 2,8 C 2,2 C 98 % 1029,1 hPa 0,0 l/m 0 min 0 min 0 W/m 6,4 km/h (2 Bft) 100,00 %
04.01.2020 03:30 3,6 C 2,8 C 2,2 C 98 % 1029,1 hPa 0,0 l/m 0 min 0 min 0 W/m 6,4 km/h (2 Bft) 100,00 %
04.01.2020 03:32 3,6 C 2,8 C 2,2 C 98 % 1029,1 hPa 0,0 l/m 0 min 0 min 0 W/m 12,9 km/h (3 Bft) 100,00 %
04.01.2020 03:34 3,6 C 2,8 C 2,2 C 98 % 1029,1 hPa 0,0 l/m 0 min 0 min 0 W/m 6,4 km/h (2 Bft) 97,87 %
04.01.2020 03:36 3,6 C 2,8 C 2,2 C 98 % 1029,1 hPa 0,0 l/m 0 min 0 min 0 W/m 3,2 km/h (1 Bft) 97,87 %
04.01.2020 03:38 3,6 C 2,8 C 2,2 C 98 % 1029,1 hPa 0,0 l/m 0 min 0 min 0 W/m 3,2 km/h (1 Bft) 100,00 %
04.01.2020 03:40 3,6 C 2,8 C 2,2 C 98 % 1029,1 hPa 0,0 l/m 0 min 0 min 0 W/m 12,9 km/h (3 Bft) 100,00 %
04.01.2020 03:42 3,6 C 2,8 C 2,2 C 98 % 1029,1 hPa 0,0 l/m 0 min 0 min 0 W/m 3,2 km/h (1 Bft) 100,00 %
04.01.2020 03:44 3,6 C 2,8 C 2,2 C 98 % 1029,1 hPa 0,0 l/m 0 min 0 min 0 W/m 3,2 km/h (1 Bft) 95,74 %
04.01.2020 03:46 3,6 C 2,8 C 2,2 C 98 % 1029,1 hPa 0,0 l/m 0 min 0 min 0 W/m 3,2 km/h (1 Bft) 95,74 %
04.01.2020 03:48 3,6 C 2,8 C 2,2 C 98 % 1029,1 hPa 0,0 l/m 0 min 0 min 0 W/m 3,2 km/h (1 Bft) 93,62 %
04.01.2020 03:50 3,6 C 2,8 C 2,2 C 98 % 1029,0 hPa 0,0 l/m 0 min 0 min 0 W/m 3,2 km/h (1 Bft) 95,74 %
04.01.2020 03:52 3,6 C 2,8 C 2,2 C 98 % 1029,0 hPa 0,0 l/m 0 min 0 min 0 W/m 6,4 km/h (2 Bft) 95,74 %
04.01.2020 03:54 3,6 C 2,8 C 2,2 C 98 % 1029,0 hPa 0,0 l/m 0 min 0 min 0 W/m 6,4 km/h (2 Bft) 95,65 %
04.01.2020 03:56 3,6 C 2,8 C 2,2 C 98 % 1029,0 hPa 0,0 l/m 0 min 0 min 0 W/m 3,2 km/h (1 Bft) 97,87 %
04.01.2020 03:58 3,6 C 2,8 C 2,2 C 98 % 1029,0 hPa 0,0 l/m 0 min 0 min 0 W/m 3,2 km/h (1 Bft) 95,74 %
04.01.2020 04:00 3,6 C 2,8 C 2,2 C 98 % 1029,0 hPa 0,0 l/m 0 min 0 min 0 W/m 0,0 km/h (0 Bft) 91,49 %
04.01.2020 04:02 3,6 C 2,8 C 2,2 C 98 % 1029,1 hPa 0,0 l/m 0 min 0 min 0 W/m 3,2 km/h (1 Bft) 96,97 %
04.01.2020 04:04 3,6 C 2,8 C 2,2 C 98 % 1029,0 hPa 0,0 l/m 0 min 0 min 0 W/m 6,4 km/h (2 Bft) 95,45 %
04.01.2020 04:06 3,5 C 2,8 C 2,2 C 98 % 1029,1 hPa 0,0 l/m 0 min 0 min 0 W/m 6,4 km/h (2 Bft) 91,49 %
04.01.2020 04:08 3,5 C 2,2 C 2,2 C 98 % 1029,1 hPa 0,0 l/m 0 min 0 min 0 W/m 6,4 km/h (2 Bft) 93,62 %
04.01.2020 04:10 3,5 C 2,2 C 2,2 C 98 % 1029,0 hPa 0,0 l/m 0 min 0 min 0 W/m 3,2 km/h (1 Bft) 93,62 %
04.01.2020 04:12 3,5 C 2,2 C 2,2 C 98 % 1029,0 hPa 0,0 l/m 0 min 0 min 0 W/m 6,4 km/h (2 Bft) 93,62 %
04.01.2020 04:14 3,4 C 2,8 C 2,2 C 98 % 1029,0 hPa 0,0 l/m 0 min 0 min 0 W/m 0,0 km/h (0 Bft) 95,74 %
04.01.2020 04:16 3,4 C 2,8 C 2,2 C 98 % 1029,1 hPa 0,0 l/m 0 min 0 min 0 W/m 3,2 km/h (1 Bft) 93,48 %
04.01.2020 04:18 3,4 C 2,2 C 2,2 C 98 % 1029,0 hPa 0,0 l/m 0 min 0 min 0 W/m 3,2 km/h (1 Bft) 95,74 %
04.01.2020 04:20 3,4 C 2,8 C 2,2 C 98 % 1029,0 hPa 0,0 l/m 0 min 0 min 0 W/m 3,2 km/h (1 Bft) 93,62 %
04.01.2020 04:22 3,4 C 2,8 C 2,2 C 98 % 1029,2 hPa 0,0 l/m 0 min 0 min 0 W/m 0,0 km/h (0 Bft) 93,62 %
04.01.2020 04:24 3,4 C 2,8 C 2,2 C 98 % 1029,1 hPa 0,0 l/m 0 min 0 min 0 W/m 0,0 km/h (0 Bft) 91,49 %
04.01.2020 04:26 3,4 C 2,2 C 2,2 C 98 % 1029,1 hPa 0,0 l/m 0 min 0 min 0 W/m 3,2 km/h (1 Bft) 91,49 %
04.01.2020 04:28 3,4 C 2,8 C 2,2 C 98 % 1029,2 hPa 0,0 l/m 0 min 0 min 0 W/m 6,4 km/h (2 Bft) 95,65 %
04.01.2020 04:30 3,4 C 2,2 C 2,2 C 98 % 1029,2 hPa 0,0 l/m 0 min 0 min 0 W/m 3,2 km/h (1 Bft) 97,87 %
04.01.2020 04:32 3,4 C 2,2 C 2,2 C 98 % 1029,2 hPa 0,0 l/m 0 min 0 min 0 W/m 6,4 km/h (2 Bft) 95,74 %
04.01.2020 04:34 3,4 C 2,2 C 1,7 C 98 % 1029,2 hPa 0,0 l/m 0 min 0 min 0 W/m 3,2 km/h (1 Bft) 97,87 %
04.01.2020 04:36 3,4 C 2,2 C 1,7 C 98 % 1029,2 hPa 0,0 l/m 0 min 0 min 0 W/m 0,0 km/h (0 Bft) 97,87 %
04.01.2020 04:38 3,3 C 2,2 C 1,7 C 98 % 1029,2 hPa 0,0 l/m 0 min 0 min 0 W/m 0,0 km/h (0 Bft) 97,87 %
04.01.2020 04:40 3,3 C 2,2 C 1,7 C 98 % 1029,1 hPa 0,0 l/m 0 min 0 min 0 W/m 0,0 km/h (0 Bft) 95,65 %
04.01.2020 04:42 3,3 C 2,2 C 1,7 C 98 % 1029,1 hPa 0,0 l/m 0 min 0 min 0 W/m 0,0 km/h (0 Bft) 97,87 %
04.01.2020 04:44 3,3 C 2,2 C 1,7 C 98 % 1029,1 hPa 0,0 l/m 0 min 0 min 0 W/m 0,0 km/h (0 Bft) 97,87 %
04.01.2020 04:46 3,3 C 2,2 C 1,7 C 98 % 1029,0 hPa 0,0 l/m 0 min 0 min 0 W/m 6,4 km/h (2 Bft) 97,87 %
04.01.2020 04:48 3,3 C 2,2 C 1,7 C 98 % 1028,9 hPa 0,0 l/m 0 min 0 min 0 W/m 6,4 km/h (2 Bft) 95,74 %
04.01.2020 04:50 3,3 C 2,2 C 1,7 C 98 % 1028,9 hPa 0,0 l/m 0 min 0 min 0 W/m 6,4 km/h (2 Bft) 95,74 %
04.01.2020 04:52 3,3 C 2,2 C 1,7 C 98 % 1029,0 hPa 0,0 l/m 0 min 0 min 0 W/m 6,4 km/h (2 Bft) 97,83 %
04.01.2020 04:54 3,3 C 2,2 C 1,7 C 98 % 1029,0 hPa 0,0 l/m 0 min 0 min 0 W/m 3,2 km/h (1 Bft) 97,87 %
04.01.2020 04:56 3,3 C 2,2 C 1,7 C 98 % 1029,0 hPa 0,0 l/m 0 min 0 min 0 W/m 3,2 km/h (1 Bft) 95,74 %
04.01.2020 04:58 3,2 C 2,2 C 1,7 C 98 % 1029,0 hPa 0,0 l/m 0 min 0 min 0 W/m 3,2 km/h (1 Bft) 97,87 %
04.01.2020 05:00 3,2 C 2,2 C 1,7 C 98 % 1029,1 hPa 0,0 l/m 0 min 0 min 0 W/m 6,4 km/h (2 Bft) 97,87 %
04.01.2020 05:02 3,2 C 2,2 C 1,7 C 98 % 1029,0 hPa 0,0 l/m 0 min 0 min 0 W/m 6,4 km/h (2 Bft) 97,87 %
04.01.2020 05:04 3,2 C 2,2 C 1,7 C 98 % 1029,0 hPa 0,0 l/m 0 min 0 min 0 W/m 3,2 km/h (1 Bft) 100,00 %
04.01.2020 05:06 3,2 C 2,2 C 1,7 C 98 % 1029,0 hPa 0,0 l/m 0 min 0 min 0 W/m 3,2 km/h (1 Bft) 97,87 %
04.01.2020 05:08 3,2 C 2,2 C 1,7 C 98 % 1029,1 hPa 0,0 l/m 0 min 0 min 0 W/m 3,2 km/h (1 Bft) 100,00 %
04.01.2020 05:10 3,2 C 2,2 C 1,7 C 98 % 1029,1 hPa 0,0 l/m 0 min 0 min 0 W/m 6,4 km/h (2 Bft) 100,00 %
04.01.2020 05:12 3,2 C 2,2 C 1,7 C 98 % 1029,1 hPa 0,0 l/m 0 min 0 min 0 W/m 3,2 km/h (1 Bft) 100,00 %
04.01.2020 05:14 3,2 C 2,2 C 1,7 C 98 % 1029,1 hPa 0,0 l/m 0 min 0 min 0 W/m 0,0 km/h (0 Bft) 100,00 %
04.01.2020 05:16 3,2 C 2,2 C 1,7 C 98 % 1029,1 hPa 0,0 l/m 0 min 0 min 0 W/m 6,4 km/h (2 Bft) 97,87 %
04.01.2020 05:18 3,2 C 2,2 C 1,7 C 98 % 1029,1 hPa 0,0 l/m 0 min 0 min 0 W/m 12,9 km/h (3 Bft) 100,00 %
04.01.2020 05:20 3,1 C 2,2 C 1,7 C 98 % 1029,1 hPa 0,0 l/m 0 min 0 min 0 W/m 3,2 km/h (1 Bft) 97,87 %
04.01.2020 05:22 3,2 C 2,2 C 1,7 C 98 % 1029,1 hPa 0,0 l/m 0 min 0 min 0 W/m 3,2 km/h (1 Bft) 97,87 %
04.01.2020 05:24 3,1 C 2,2 C 1,7 C 98 % 1029,1 hPa 0,0 l/m 0 min 0 min 0 W/m 3,2 km/h (1 Bft) 100,00 %
04.01.2020 05:26 3,1 C 2,2 C 1,7 C 98 % 1029,1 hPa 0,0 l/m 0 min 0 min 0 W/m 6,4 km/h (2 Bft) 97,83 %
04.01.2020 05:28 3,1 C 2,2 C 1,7 C 98 % 1029,1 hPa 0,0 l/m 0 min 0 min 0 W/m 0,0 km/h (0 Bft) 100,00 %
04.01.2020 05:30 3,1 C 2,2 C 1,7 C 98 % 1029,2 hPa 0,0 l/m 0 min 0 min 0 W/m 3,2 km/h (1 Bft) 100,00 %
04.01.2020 05:32 3,1 C 2,2 C 1,7 C 98 % 1029,2 hPa 0,0 l/m 0 min 0 min 0 W/m 16,1 km/h (3 Bft) 97,87 %
04.01.2020 05:34 3,1 C 2,2 C 1,7 C 98 % 1029,1 hPa 0,0 l/m 0 min 0 min 0 W/m 3,2 km/h (1 Bft) 100,00 %
04.01.2020 05:36 3,1 C 2,2 C 1,7 C 98 % 1029,1 hPa 0,0 l/m 0 min 0 min 0 W/m 6,4 km/h (2 Bft) 100,00 %
04.01.2020 05:38 3,1 C 2,2 C 1,7 C 98 % 1029,1 hPa 0,0 l/m 0 min 0 min 0 W/m 3,2 km/h (1 Bft) 100,00 %
04.01.2020 05:40 3,1 C 2,2 C 1,7 C 98 % 1029,1 hPa 0,0 l/m 0 min 0 min 0 W/m 6,4 km/h (2 Bft) 100,00 %
04.01.2020 05:42 3,1 C 2,2 C 1,7 C 98 % 1029,1 hPa 0,0 l/m 0 min 0 min 0 W/m 12,9 km/h (3 Bft) 100,00 %
04.01.2020 05:44 3,1 C 2,2 C 1,7 C 98 % 1029,1 hPa 0,0 l/m 0 min 0 min 0 W/m 6,4 km/h (2 Bft) 100,00 %
04.01.2020 05:46 3,1 C 2,2 C 1,7 C 98 % 1029,0 hPa 0,0 l/m 0 min 0 min 0 W/m 3,2 km/h (1 Bft) 100,00 %
04.01.2020 05:48 3,1 C 2,2 C 1,7 C 98 % 1029,1 hPa 0,0 l/m 0 min 0 min 0 W/m 6,4 km/h (2 Bft) 100,00 %
04.01.2020 05:50 3,1 C 2,2 C 1,7 C 98 % 1029,0 hPa 0,0 l/m 0 min 0 min 0 W/m 6,4 km/h (2 Bft) 100,00 %
04.01.2020 05:52 3,1 C 2,2 C 1,7 C 98 % 1029,0 hPa 0,0 l/m 0 min 0 min 0 W/m 12,9 km/h (3 Bft) 97,87 %
04.01.2020 05:54 3,1 C 2,2 C 2,2 C 98 % 1029,0 hPa 0,0 l/m 0 min 0 min 0 W/m 12,9 km/h (3 Bft) 100,00 %
04.01.2020 05:56 3,1 C 2,2 C 1,7 C 98 % 1029,0 hPa 0,0 l/m 0 min 0 min 0 W/m 6,4 km/h (2 Bft) 100,00 %
04.01.2020 05:58 3,1 C 2,2 C 1,7 C 98 % 1029,1 hPa 0,0 l/m 0 min 0 min 0 W/m 6,4 km/h (2 Bft) 97,87 %
04.01.2020 06:00 3,1 C 2,2 C 1,7 C 98 % 1029,1 hPa 0,0 l/m 0 min 0 min 0 W/m 3,2 km/h (1 Bft) 95,65 %
04.01.2020 06:02 3,1 C 2,2 C 1,7 C 98 % 1029,1 hPa 0,0 l/m 0 min 0 min 0 W/m 3,2 km/h (1 Bft) 97,87 %
04.01.2020 06:04 3,1 C 2,2 C 1,7 C 98 % 1029,1 hPa 0,0 l/m 0 min 0 min 0 W/m 16,1 km/h (3 Bft) 97,87 %
04.01.2020 06:06 3,2 C 2,2 C 2,2 C 98 % 1029,1 hPa 0,0 l/m 0 min 0 min 0 W/m 6,4 km/h (2 Bft) 100,00 %
04.01.2020 06:08 3,2 C 2,8 C 2,2 C 98 % 1029,2 hPa 0,0 l/m 0 min 0 min 0 W/m 12,9 km/h (3 Bft) 100,00 %
04.01.2020 06:10 3,2 C 2,8 C 2,2 C 98 % 1029,3 hPa 0,0 l/m 0 min 0 min 0 W/m 3,2 km/h (1 Bft) 97,87 %
04.01.2020 06:12 3,2 C 2,8 C 2,2 C 98 % 1029,3 hPa 0,0 l/m 0 min 0 min 0 W/m 6,4 km/h (2 Bft) 97,87 %
04.01.2020 06:14 3,2 C 2,8 C 2,2 C 98 % 1029,3 hPa 0,0 l/m 0 min 0 min 0 W/m 6,4 km/h (2 Bft) 97,83 %
04.01.2020 06:16 3,2 C 2,8 C 2,2 C 98 % 1029,3 hPa 0,0 l/m 0 min 0 min 0 W/m 0,0 km/h (0 Bft) 65,96 %
04.01.2020 06:18 3,2 C 2,8 C 2,2 C 98 % 1029,3 hPa 0,0 l/m 0 min 0 min 0 W/m 6,4 km/h (2 Bft) 91,11 %
04.01.2020 06:20 3,2 C 2,8 C 2,2 C 98 % 1029,2 hPa 0,0 l/m 0 min 0 min 0 W/m 6,4 km/h (2 Bft) 97,87 %
04.01.2020 06:22 3,2 C 2,8 C 2,2 C 98 % 1029,3 hPa 0,0 l/m 0 min 0 min 0 W/m 16,1 km/h (3 Bft) 93,62 %
04.01.2020 06:24 3,2 C 2,8 C 2,2 C 98 % 1029,4 hPa 0,0 l/m 0 min 0 min 0 W/m 16,1 km/h (3 Bft) 93,48 %
04.01.2020 06:26 3,3 C 2,8 C 2,2 C 98 % 1029,4 hPa 0,0 l/m 0 min 0 min 0 W/m 9,7 km/h (2 Bft) 95,74 %
04.01.2020 06:28 3,3 C 2,8 C 2,2 C 98 % 1029,3 hPa 0,0 l/m 0 min 0 min 0 W/m 12,9 km/h (3 Bft) 95,74 %
04.01.2020 06:30 3,3 C 2,8 C 2,2 C 98 % 1029,3 hPa 0,0 l/m 0 min 0 min 0 W/m 3,2 km/h (1 Bft) 95,74 %
04.01.2020 06:32 3,3 C 2,8 C 2,2 C 98 % 1029,3 hPa 0,0 l/m 0 min 0 min 0 W/m 3,2 km/h (1 Bft) 95,74 %
04.01.2020 06:34 3,3 C 2,8 C 2,2 C 98 % 1029,2 hPa 0,0 l/m 0 min 0 min 0 W/m 3,2 km/h (1 Bft) 93,62 %
04.01.2020 06:36 3,3 C 2,8 C 2,2 C 98 % 1029,3 hPa 0,0 l/m 0 min 0 min 0 W/m 3,2 km/h (1 Bft) 95,65 %
04.01.2020 06:38 3,3 C 2,8 C 2,2 C 98 % 1029,4 hPa 0,0 l/m 0 min 0 min 0 W/m 3,2 km/h (1 Bft) 97,87 %
04.01.2020 06:40 3,3 C 2,8 C 2,2 C 98 % 1029,4 hPa 0,0 l/m 0 min 0 min 0 W/m 9,7 km/h (2 Bft) 95,74 %
04.01.2020 06:42 3,3 C 2,8 C 2,2 C 98 % 1029,5 hPa 0,0 l/m 0 min 0 min 0 W/m 3,2 km/h (1 Bft) 93,62 %
04.01.2020 06:44 3,3 C 2,8 C 2,2 C 98 % 1029,4 hPa 0,0 l/m 0 min 0 min 0 W/m 3,2 km/h (1 Bft) 95,74 %
04.01.2020 06:46 3,3 C 2,8 C 2,2 C 98 % 1029,4 hPa 0,0 l/m 0 min 0 min 0 W/m 3,2 km/h (1 Bft) 93,62 %
04.01.2020 06:48 3,3 C 2,8 C 2,2 C 98 % 1029,4 hPa 0,0 l/m 0 min 0 min 0 W/m 0,0 km/h (0 Bft) 95,65 %
04.01.2020 06:50 3,4 C 2,8 C 2,2 C 98 % 1029,4 hPa 0,0 l/m 0 min 0 min 0 W/m 3,2 km/h (1 Bft) 95,74 %
04.01.2020 06:52 3,4 C 3,3 C 2,8 C 98 % 1029,5 hPa 0,0 l/m 0 min 0 min 0 W/m 0,0 km/h (0 Bft) 97,87 %
04.01.2020 06:54 3,4 C 3,3 C 2,8 C 98 % 1029,4 hPa 0,0 l/m 0 min 0 min 0 W/m 3,2 km/h (1 Bft) 93,62 %
04.01.2020 06:56 3,4 C 3,3 C 2,2 C 98 % 1029,3 hPa 0,0 l/m 0 min 0 min 0 W/m 3,2 km/h (1 Bft) 95,74 %
04.01.2020 06:58 3,5 C 2,8 C 2,2 C 98 % 1029,3 hPa 0,0 l/m 0 min 0 min 0 W/m 6,4 km/h (2 Bft) 95,74 %
04.01.2020 07:00 3,5 C 2,8 C 2,2 C 98 % 1029,2 hPa 0,0 l/m 0 min 0 min 0 W/m 3,2 km/h (1 Bft) 93,48 %
04.01.2020 07:02 3,5 C 2,8 C 2,2 C 98 % 1029,3 hPa 0,0 l/m 0 min 0 min 0 W/m 3,2 km/h (1 Bft) 95,74 %
04.01.2020 07:04 3,5 C 2,8 C 2,2 C 98 % 1029,2 hPa 0,0 l/m 0 min 0 min 0 W/m 0,0 km/h (0 Bft) 95,74 %
04.01.2020 07:06 3,5 C 2,8 C 2,2 C 98 % 1029,2 hPa 0,0 l/m 0 min 0 min 0 W/m 0,0 km/h (0 Bft) 97,87 %
04.01.2020 07:08 3,5 C 2,8 C 2,2 C 98 % 1029,3 hPa 0,0 l/m 0 min 0 min 0 W/m 0,0 km/h (0 Bft) 100,00 %
04.01.2020 07:10 3,5 C 2,8 C 2,2 C 98 % 1029,2 hPa 0,0 l/m 0 min 0 min 0 W/m 6,4 km/h (2 Bft) 100,00 %
04.01.2020 07:12 3,4 C 2,8 C 2,2 C 98 % 1029,2 hPa 0,0 l/m 0 min 0 min 0 W/m 3,2 km/h (1 Bft) 100,00 %
04.01.2020 07:14 3,4 C 2,8 C 2,2 C 98 % 1029,2 hPa 0,0 l/m 0 min 0 min 0 W/m 3,2 km/h (1 Bft) 97,87 %
04.01.2020 07:16 3,4 C 2,8 C 2,2 C 98 % 1029,2 hPa 0,0 l/m 0 min 0 min 0 W/m 0,0 km/h (0 Bft) 100,00 %
04.01.2020 07:18 3,4 C 2,8 C 2,2 C 98 % 1029,3 hPa 0,0 l/m 0 min 0 min 0 W/m 0,0 km/h (0 Bft) 100,00 %
04.01.2020 07:20 3,4 C 2,8 C 2,2 C 98 % 1029,2 hPa 0,0 l/m 0 min 0 min 0 W/m 3,2 km/h (1 Bft) 100,00 %
04.01.2020 07:22 3,4 C 2,8 C 2,2 C 98 % 1029,2 hPa 0,0 l/m 0 min 0 min 0 W/m 0,0 km/h (0 Bft) 100,00 %
04.01.2020 07:24 3,4 C 2,8 C 2,2 C 98 % 1029,2 hPa 0,0 l/m 0 min 0 min 0 W/m 12,9 km/h (3 Bft) 100,00 %
04.01.2020 07:26 3,4 C 2,8 C 2,2 C 98 % 1029,1 hPa 0,0 l/m 0 min 0 min 0 W/m 0,0 km/h (0 Bft) 100,00 %
04.01.2020 07:28 3,4 C 2,8 C 2,2 C 98 % 1029,2 hPa 0,0 l/m 0 min 0 min 0 W/m 6,4 km/h (2 Bft) 97,87 %
04.01.2020 07:30 3,4 C 2,8 C 2,2 C 98 % 1029,3 hPa 0,0 l/m 0 min 0 min 0 W/m 6,4 km/h (2 Bft) 97,87 %
04.01.2020 07:32 3,4 C 2,8 C 2,2 C 98 % 1029,4 hPa 0,0 l/m 0 min 0 min 0 W/m 0,0 km/h (0 Bft) 95,74 %
04.01.2020 07:34 3,4 C 3,3 C 2,2 C 98 % 1029,4 hPa 0,0 l/m 0 min 0 min 0 W/m 0,0 km/h (0 Bft) 97,83 %
04.01.2020 07:36 3,5 C 2,8 C 2,2 C 98 % 1029,3 hPa 0,0 l/m 0 min 0 min 0 W/m 3,2 km/h (1 Bft) 97,87 %
04.01.2020 07:38 3,5 C 3,3 C 2,2 C 98 % 1029,3 hPa 0,0 l/m 0 min 0 min 0 W/m 12,9 km/h (3 Bft) 97,87 %
04.01.2020 07:40 3,5 C 2,8 C 2,2 C 98 % 1029,4 hPa 0,0 l/m 0 min 0 min 0 W/m 0,0 km/h (0 Bft) 97,87 %
04.01.2020 07:42 3,6 C 2,8 C 2,2 C 98 % 1029,3 hPa 0,0 l/m 0 min 0 min 0 W/m 16,1 km/h (3 Bft) 97,87 %
04.01.2020 07:44 3,6 C 2,8 C 2,2 C 98 % 1029,3 hPa 0,0 l/m 0 min 0 min 0 W/m 0,0 km/h (0 Bft) 97,87 %
04.01.2020 07:46 3,6 C 2,8 C 2,2 C 98 % 1029,4 hPa 0,0 l/m 0 min 0 min 0 W/m 3,2 km/h (1 Bft) 95,65 %
04.01.2020 07:48 3,6 C 2,8 C 2,2 C 98 % 1029,5 hPa 0,0 l/m 0 min 0 min 0 W/m 3,2 km/h (1 Bft) 97,87 %
04.01.2020 07:50 3,6 C 2,8 C 2,2 C 98 % 1029,5 hPa 0,0 l/m 0 min 0 min 0 W/m 6,4 km/h (2 Bft) 97,87 %
04.01.2020 07:52 3,6 C 3,3 C 2,2 C 98 % 1029,5 hPa 0,0 l/m 0 min 0 min 0 W/m 12,9 km/h (3 Bft) 95,74 %
04.01.2020 07:54 3,6 C 3,3 C 2,2 C 98 % 1029,4 hPa 0,0 l/m 0 min 0 min 0 W/m 6,4 km/h (2 Bft) 97,87 %
04.01.2020 07:56 3,6 C 2,8 C 2,2 C 98 % 1029,4 hPa 0,0 l/m 0 min 0 min 0 W/m 3,2 km/h (1 Bft) 97,83 %
04.01.2020 07:58 3,6 C 3,3 C 2,2 C 98 % 1029,4 hPa 0,0 l/m 0 min 0 min 0 W/m 3,2 km/h (1 Bft) 97,87 %
04.01.2020 08:00 3,6 C 3,3 C 2,2 C 98 % 1029,4 hPa 0,0 l/m 0 min 0 min 0 W/m 3,2 km/h (1 Bft) 97,87 %
04.01.2020 08:02 3,6 C 2,8 C 2,2 C 98 % 1029,4 hPa 0,0 l/m 0 min 0 min 0 W/m 19,3 km/h (3 Bft) 97,87 %
04.01.2020 08:04 3,6 C 2,8 C 2,2 C 98 % 1029,4 hPa 0,0 l/m 0 min 0 min 0 W/m 12,9 km/h (3 Bft) 97,92 %
04.01.2020 08:06 3,6 C 2,8 C 2,2 C 98 % 1029,5 hPa 0,0 l/m 0 min 0 min 0 W/m 0,0 km/h (0 Bft) 97,87 %
04.01.2020 08:08 3,6 C 2,8 C 2,2 C 98 % 1029,5 hPa 0,0 l/m 0 min 0 min 0 W/m 12,9 km/h (3 Bft) 95,65 %
04.01.2020 08:10 3,6 C 3,3 C 2,2 C 98 % 1029,6 hPa 0,0 l/m 0 min 0 min 0 W/m 16,1 km/h (3 Bft) 97,87 %
04.01.2020 08:12 3,6 C 2,8 C 2,2 C 98 % 1029,6 hPa 0,0 l/m 0 min 0 min 0 W/m 3,2 km/h (1 Bft) 95,74 %
04.01.2020 08:14 3,6 C 2,8 C 2,2 C 98 % 1029,5 hPa 0,0 l/m 0 min 0 min 0 W/m 12,9 km/h (3 Bft) 97,87 %
04.01.2020 08:16 3,6 C 2,8 C 2,2 C 98 % 1029,6 hPa 0,0 l/m 0 min 0 min 0 W/m 6,4 km/h (2 Bft) 97,87 %
04.01.2020 08:18 3,6 C 2,8 C 2,2 C 98 % 1029,7 hPa 0,0 l/m 0 min 0 min 0 W/m 3,2 km/h (1 Bft) 95,74 %
04.01.2020 08:20 3,6 C 3,3 C 2,2 C 98 % 1029,6 hPa 0,0 l/m 0 min 0 min 0 W/m 12,9 km/h (3 Bft) 97,83 %
04.01.2020 08:22 3,6 C 3,3 C 2,2 C 98 % 1029,6 hPa 0,0 l/m 0 min 0 min 0 W/m 9,7 km/h (2 Bft) 97,87 %
04.01.2020 08:24 3,6 C 3,3 C 2,2 C 98 % 1029,6 hPa 0,0 l/m 0 min 0 min 0 W/m 12,9 km/h (3 Bft) 97,87 %
04.01.2020 08:26 3,7 C 3,3 C 2,2 C 98 % 1029,7 hPa 0,0 l/m 0 min 0 min 0 W/m 6,4 km/h (2 Bft) 95,74 %
04.01.2020 08:28 3,7 C 3,3 C 2,8 C 98 % 1029,7 hPa 0,0 l/m 0 min 0 min 0 W/m 16,1 km/h (3 Bft) 97,87 %
04.01.2020 08:30 3,7 C 3,3 C 2,2 C 98 % 1029,7 hPa 0,0 l/m 0 min 0 min 0 W/m 3,2 km/h (1 Bft) 97,87 %
04.01.2020 08:32 3,7 C 3,3 C 2,2 C 98 % 1029,7 hPa 0,0 l/m 0 min 0 min 0 W/m 12,9 km/h (3 Bft) 100,00 %
04.01.2020 08:34 3,7 C 3,3 C 2,8 C 98 % 1029,8 hPa 0,0 l/m 0 min 0 min 0 W/m 12,9 km/h (3 Bft) 100,00 %
04.01.2020 08:36 3,7 C 3,3 C 2,2 C 98 % 1029,7 hPa 0,0 l/m 0 min 0 min 0 W/m 6,4 km/h (2 Bft) 97,87 %
04.01.2020 08:38 3,7 C 3,3 C 2,2 C 98 % 1029,7 hPa 0,0 l/m 0 min 0 min 0 W/m 12,9 km/h (3 Bft) 100,00 %
04.01.2020 08:40 3,7 C 2,8 C 2,2 C 98 % 1029,7 hPa 0,0 l/m 0 min 0 min 0 W/m 12,9 km/h (3 Bft) 97,87 %
04.01.2020 08:42 3,7 C 2,8 C 2,2 C 98 % 1029,8 hPa 0,0 l/m 0 min 0 min 0 W/m 3,2 km/h (1 Bft) 100,00 %
04.01.2020 08:44 3,7 C 2,8 C 2,2 C 98 % 1029,8 hPa 0,0 l/m 0 min 0 min 0 W/m 12,9 km/h (3 Bft) 100,00 %
04.01.2020 08:46 3,7 C 2,8 C 2,2 C 98 % 1029,7 hPa 0,0 l/m 0 min 0 min 4 W/m 3,2 km/h (1 Bft) 95,74 %
04.01.2020 08:48 3,7 C 3,3 C 2,2 C 98 % 1029,7 hPa 0,0 l/m 0 min 0 min 5 W/m 6,4 km/h (2 Bft) 97,87 %
04.01.2020 08:50 3,7 C 3,3 C 2,2 C 98 % 1029,7 hPa 0,2 l/m 0 min 0 min 7 W/m 22,5 km/h (4 Bft) 95,74 %
04.01.2020 08:52 3,7 C 3,3 C 2,8 C 98 % 1029,7 hPa 0,0 l/m 0 min 0 min 7 W/m 6,4 km/h (2 Bft) 100,00 %
04.01.2020 08:54 3,7 C 3,3 C 2,8 C 98 % 1029,7 hPa 0,0 l/m 0 min 0 min 8 W/m 12,9 km/h (3 Bft) 100,00 %
04.01.2020 08:56 3,7 C 3,3 C 2,2 C 98 % 1029,7 hPa 0,0 l/m 0 min 0 min 9 W/m 12,9 km/h (3 Bft) 97,87 %
04.01.2020 08:58 3,7 C 3,3 C 2,2 C 98 % 1029,7 hPa 0,0 l/m 0 min 0 min 11 W/m 6,4 km/h (2 Bft) 97,87 %
04.01.2020 09:00 3,7 C 3,3 C 2,2 C 98 % 1029,7 hPa 0,0 l/m 0 min 0 min 11 W/m 9,7 km/h (2 Bft) 93,62 %
04.01.2020 09:02 3,7 C 3,3 C 2,2 C 98 % 1029,6 hPa 0,0 l/m 0 min 0 min 12 W/m 9,7 km/h (2 Bft) 95,74 %
04.01.2020 09:04 3,6 C 3,3 C 2,2 C 98 % 1029,7 hPa 0,0 l/m 0 min 0 min 12 W/m 3,2 km/h (1 Bft) 95,74 %
04.01.2020 09:06 3,6 C 3,3 C 2,2 C 98 % 1029,7 hPa 0,0 l/m 0 min 0 min 12 W/m 12,9 km/h (3 Bft) 95,65 %
04.01.2020 09:08 3,6 C 3,3 C 2,2 C 98 % 1029,8 hPa 0,0 l/m 0 min 0 min 13 W/m 3,2 km/h (1 Bft) 95,74 %
04.01.2020 09:10 3,6 C 3,3 C 2,2 C 98 % 1029,8 hPa 0,0 l/m 0 min 0 min 15 W/m 6,4 km/h (2 Bft) 95,74 %
04.01.2020 09:12 3,6 C 3,3 C 2,2 C 98 % 1029,7 hPa 0,0 l/m 0 min 0 min 16 W/m 16,1 km/h (3 Bft) 93,62 %
04.01.2020 09:14 3,6 C 3,3 C 2,2 C 98 % 1029,7 hPa 0,0 l/m 0 min 0 min 16 W/m 12,9 km/h (3 Bft) 95,74 %
04.01.2020 09:16 3,6 C 3,3 C 2,8 C 98 % 1029,7 hPa 0,0 l/m 0 min 0 min 18 W/m 16,1 km/h (3 Bft) 95,74 %
04.01.2020 09:18 3,7 C 3,3 C 2,8 C 98 % 1029,8 hPa 0,0 l/m 0 min 0 min 19 W/m 6,4 km/h (2 Bft) 93,48 %
04.01.2020 09:20 3,7 C 3,3 C 2,8 C 98 % 1029,7 hPa 0,0 l/m 0 min 0 min 21 W/m 3,2 km/h (1 Bft) 95,74 %
04.01.2020 09:22 3,7 C 3,3 C 2,8 C 98 % 1029,7 hPa 0,0 l/m 0 min 0 min 24 W/m 6,4 km/h (2 Bft) 95,74 %
04.01.2020 09:24 3,7 C 3,3 C 2,8 C 98 % 1029,7 hPa 0,0 l/m 0 min 0 min 22 W/m 3,2 km/h (1 Bft) 93,62 %
04.01.2020 09:26 3,7 C 3,3 C 2,8 C 98 % 1029,8 hPa 0,0 l/m 0 min 0 min 21 W/m 0,0 km/h (0 Bft) 95,74 %
04.01.2020 09:28 3,7 C 3,3 C 2,8 C 98 % 1029,8 hPa 0,0 l/m 0 min 0 min 24 W/m 19,3 km/h (3 Bft) 95,74 %
04.01.2020 09:30 3,7 C 3,3 C 2,8 C 98 % 1029,7 hPa 0,0 l/m 0 min 0 min 35 W/m 6,4 km/h (2 Bft) 95,65 %
04.01.2020 09:32 3,8 C 3,3 C 2,8 C 98 % 1029,7 hPa 0,0 l/m 0 min 0 min 33 W/m 3,2 km/h (1 Bft) 93,62 %
04.01.2020 09:34 3,8 C 3,3 C 2,8 C 98 % 1029,6 hPa 0,0 l/m 0 min 0 min 27 W/m 3,2 km/h (1 Bft) 95,74 %
04.01.2020 09:36 3,8 C 3,3 C 2,8 C 98 % 1029,6 hPa 0,0 l/m 0 min 0 min 27 W/m 12,9 km/h (3 Bft) 93,62 %
04.01.2020 09:38 3,8 C 3,3 C 2,8 C 98 % 1029,6 hPa 0,0 l/m 0 min 0 min 30 W/m 12,9 km/h (3 Bft) 95,74 %
04.01.2020 09:40 3,8 C 3,9 C 2,8 C 98 % 1029,6 hPa 0,0 l/m 0 min 0 min 30 W/m 3,2 km/h (1 Bft) 97,87 %
04.01.2020 09:42 3,9 C 3,9 C 2,8 C 98 % 1029,6 hPa 0,0 l/m 0 min 0 min 31 W/m 9,7 km/h (2 Bft) 97,83 %
04.01.2020 09:44 3,9 C 3,9 C 3,3 C 98 % 1029,6 hPa 0,0 l/m 0 min 0 min 34 W/m 9,7 km/h (2 Bft) 97,87 %
04.01.2020 09:46 3,9 C 3,9 C 3,3 C 98 % 1029,6 hPa 0,0 l/m 0 min 0 min 35 W/m 9,7 km/h (2 Bft) 95,74 %
04.01.2020 09:48 3,9 C 3,9 C 3,3 C 98 % 1029,5 hPa 0,0 l/m 0 min 0 min 35 W/m 9,7 km/h (2 Bft) 97,87 %
04.01.2020 09:50 4,0 C 3,9 C 3,3 C 98 % 1029,5 hPa 0,0 l/m 0 min 0 min 34 W/m 12,9 km/h (3 Bft) 100,00 %
04.01.2020 09:52 4,0 C 3,9 C 3,3 C 98 % 1029,5 hPa 0,0 l/m 0 min 0 min 35 W/m 9,7 km/h (2 Bft) 100,00 %
04.01.2020 09:54 4,0 C 3,9 C 3,3 C 98 % 1029,4 hPa 0,0 l/m 0 min 0 min 36 W/m 6,4 km/h (2 Bft) 97,87 %
04.01.2020 09:56 4,0 C 3,9 C 3,3 C 98 % 1029,4 hPa 0,0 l/m 0 min 0 min 39 W/m 3,2 km/h (1 Bft) 100,00 %
04.01.2020 09:58 4,1 C 3,9 C 3,3 C 98 % 1029,4 hPa 0,0 l/m 0 min 0 min 43 W/m 3,2 km/h (1 Bft) 100,00 %
04.01.2020 10:00 4,1 C 3,9 C 3,3 C 98 % 1029,4 hPa 0,0 l/m 0 min 0 min 39 W/m 16,1 km/h (3 Bft) 100,00 %
04.01.2020 10:02 4,1 C 3,9 C 3,3 C 98 % 1029,4 hPa 0,0 l/m 0 min 0 min 37 W/m 3,2 km/h (1 Bft) 95,74 %
04.01.2020 10:04 4,2 C 3,9 C 3,3 C 98 % 1029,4 hPa 0,0 l/m 0 min 0 min 36 W/m 3,2 km/h (1 Bft) 97,83 %
04.01.2020 10:06 4,2 C 3,9 C 3,3 C 98 % 1029,4 hPa 0,0 l/m 0 min 0 min 41 W/m 12,9 km/h (3 Bft) 100,00 %
04.01.2020 10:08 4,2 C 3,9 C 3,3 C 98 % 1029,5 hPa 0,0 l/m 0 min 0 min 45 W/m 3,2 km/h (1 Bft) 97,87 %
04.01.2020 10:10 4,2 C 4,4 C 3,3 C 98 % 1029,5 hPa 0,0 l/m 0 min 0 min 43 W/m 3,2 km/h (1 Bft) 100,00 %
04.01.2020 10:12 4,3 C 4,4 C 3,3 C 98 % 1029,5 hPa 0,0 l/m 0 min 0 min 47 W/m 12,9 km/h (3 Bft) 100,00 %
04.01.2020 10:14 4,3 C 4,4 C 3,3 C 98 % 1029,6 hPa 0,0 l/m 0 min 0 min 57 W/m 3,2 km/h (1 Bft) 100,00 %
04.01.2020 10:16 4,3 C 4,4 C 3,9 C 98 % 1029,6 hPa 0,0 l/m 0 min 0 min 48 W/m 3,2 km/h (1 Bft) 100,00 %
04.01.2020 10:18 4,3 C 4,4 C 3,9 C 98 % 1029,6 hPa 0,0 l/m 0 min 0 min 47 W/m 3,2 km/h (1 Bft) 100,00 %
04.01.2020 10:20 4,3 C 4,4 C 3,9 C 98 % 1029,7 hPa 0,0 l/m 0 min 0 min 50 W/m 3,2 km/h (1 Bft) 100,00 %
04.01.2020 10:22 4,4 C 4,4 C 3,9 C 98 % 1029,7 hPa 0,0 l/m 0 min 0 min 45 W/m 9,7 km/h (2 Bft) 100,00 %
04.01.2020 10:24 4,4 C 4,4 C 3,9 C 98 % 1029,7 hPa 0,0 l/m 0 min 0 min 42 W/m 9,7 km/h (2 Bft) 100,00 %
04.01.2020 10:26 4,4 C 4,4 C 3,9 C 98 % 1029,7 hPa 0,0 l/m 0 min 0 min 42 W/m 6,4 km/h (2 Bft) 97,87 %
04.01.2020 10:28 4,5 C 4,4 C 3,9 C 98 % 1029,8 hPa 0,0 l/m 0 min 0 min 41 W/m 16,1 km/h (3 Bft) 100,00 %
04.01.2020 10:30 4,5 C 4,4 C 3,9 C 98 % 1029,7 hPa 0,0 l/m 0 min 0 min 44 W/m 3,2 km/h (1 Bft) 100,00 %
04.01.2020 10:32 4,6 C 4,4 C 3,9 C 98 % 1029,8 hPa 0,0 l/m 0 min 0 min 46 W/m 6,4 km/h (2 Bft) 100,00 %
04.01.2020 10:34 4,6 C 4,4 C 3,9 C 98 % 1029,8 hPa 0,0 l/m 0 min 0 min 45 W/m 6,4 km/h (2 Bft) 100,00 %
04.01.2020 10:36 4,6 C 4,4 C 3,9 C 98 % 1029,7 hPa 0,0 l/m 0 min 0 min 42 W/m 0,0 km/h (0 Bft) 100,00 %
04.01.2020 10:38 4,6 C 4,4 C 3,9 C 98 % 1029,7 hPa 0,0 l/m 0 min 0 min 43 W/m 6,4 km/h (2 Bft) 100,00 %
04.01.2020 10:40 4,6 C 4,4 C 3,9 C 98 % 1029,8 hPa 0,0 l/m 0 min 0 min 47 W/m 16,1 km/h (3 Bft) 100,00 %
04.01.2020 10:42 4,6 C 4,4 C 3,9 C 98 % 1029,7 hPa 0,0 l/m 0 min 0 min 56 W/m 16,1 km/h (3 Bft) 100,00 %
04.01.2020 10:44 4,7 C 4,4 C 3,9 C 98 % 1029,7 hPa 0,0 l/m 0 min 0 min 65 W/m 6,4 km/h (2 Bft) 100,00 %
04.01.2020 10:46 4,7 C 5,0 C 3,9 C 98 % 1029,8 hPa 0,0 l/m 0 min 0 min 63 W/m 9,7 km/h (2 Bft) 100,00 %
04.01.2020 10:48 4,7 C 5,0 C 3,9 C 98 % 1029,9 hPa 0,0 l/m 0 min 0 min 52 W/m 19,3 km/h (3 Bft) 95,74 %
04.01.2020 10:50 4,8 C 5,0 C 3,9 C 98 % 1029,9 hPa 0,0 l/m 0 min 0 min 46 W/m 3,2 km/h (1 Bft) 97,83 %
04.01.2020 10:52 4,8 C 4,4 C 3,9 C 98 % 1029,8 hPa 0,0 l/m 0 min 0 min 40 W/m 0,0 km/h (0 Bft) 100,00 %
04.01.2020 10:54 4,8 C 5,0 C 3,9 C 98 % 1029,8 hPa 0,0 l/m 0 min 0 min 48 W/m 22,5 km/h (4 Bft) 100,00 %
04.01.2020 10:56 4,8 C 5,0 C 3,9 C 98 % 1029,8 hPa 0,0 l/m 0 min 0 min 53 W/m 19,3 km/h (3 Bft) 97,87 %
04.01.2020 10:58 4,8 C 5,0 C 3,9 C 98 % 1029,8 hPa 0,0 l/m 0 min 0 min 53 W/m 16,1 km/h (3 Bft) 93,62 %
04.01.2020 11:00 4,8 C 5,0 C 3,9 C 98 % 1029,8 hPa 0,0 l/m 0 min 0 min 54 W/m 12,9 km/h (3 Bft) 97,87 %
04.01.2020 11:02 4,8 C 5,0 C 3,9 C 98 % 1029,9 hPa 0,0 l/m 0 min 0 min 55 W/m 3,2 km/h (1 Bft) 95,65 %
04.01.2020 11:04 4,9 C 5,0 C 3,9 C 98 % 1029,9 hPa 0,0 l/m 0 min 0 min 54 W/m 19,3 km/h (3 Bft) 97,87 %
04.01.2020 11:06 4,9 C 5,0 C 3,9 C 98 % 1030,0 hPa 0,0 l/m 0 min 0 min 53 W/m 3,2 km/h (1 Bft) 97,87 %
04.01.2020 11:08 4,9 C 5,0 C 3,9 C 97 % 1030,0 hPa 0,0 l/m 0 min 0 min 54 W/m 12,9 km/h (3 Bft) 97,87 %
04.01.2020 11:10 4,9 C 5,0 C 3,9 C 97 % 1030,1 hPa 0,0 l/m 0 min 0 min 51 W/m 12,9 km/h (3 Bft) 97,87 %
04.01.2020 11:12 4,9 C 5,0 C 3,9 C 97 % 1030,0 hPa 0,0 l/m 0 min 0 min 48 W/m 9,7 km/h (2 Bft) 97,87 %
04.01.2020 11:14 4,9 C 5,0 C 3,9 C 97 % 1030,0 hPa 0,0 l/m 0 min 0 min 45 W/m 16,1 km/h (3 Bft) 97,83 %
04.01.2020 11:16 4,9 C 5,0 C 3,9 C 97 % 1030,1 hPa 0,0 l/m 0 min 0 min 47 W/m 3,2 km/h (1 Bft) 95,74 %
04.01.2020 11:18 4,9 C 5,0 C 3,9 C 97 % 1030,1 hPa 0,0 l/m 0 min 0 min 50 W/m 3,2 km/h (1 Bft) 97,87 %
04.01.2020 11:20 4,9 C 5,0 C 3,9 C 97 % 1030,1 hPa 0,0 l/m 0 min 0 min 53 W/m 12,9 km/h (3 Bft) 97,87 %
04.01.2020 11:22 5,0 C 5,0 C 4,4 C 97 % 1030,0 hPa 0,0 l/m 0 min 0 min 56 W/m 9,7 km/h (2 Bft) 97,87 %
04.01.2020 11:24 5,0 C 5,0 C 4,4 C 97 % 1030,0 hPa 0,0 l/m 0 min 0 min 58 W/m 9,7 km/h (2 Bft) 95,74 %
04.01.2020 11:26 5,0 C 5,0 C 4,4 C 97 % 1029,9 hPa 0,0 l/m 0 min 0 min 56 W/m 19,3 km/h (3 Bft) 97,83 %
04.01.2020 11:28 5,0 C 5,0 C 4,4 C 97 % 1030,0 hPa 0,0 l/m 0 min 0 min 57 W/m 0,0 km/h (0 Bft) 80,85 %
04.01.2020 11:30 5,1 C 5,0 C 4,4 C 97 % 1029,9 hPa 0,0 l/m 0 min 0 min 63 W/m 6,4 km/h (2 Bft) 67,39 %
04.01.2020 11:32 5,1 C 5,0 C 4,4 C 97 % 1029,9 hPa 0,0 l/m 0 min 0 min 72 W/m 16,1 km/h (3 Bft) 95,74 %
04.01.2020 11:34 5,1 C 5,0 C 4,4 C 97 % 1029,8 hPa 0,0 l/m 0 min 0 min 78 W/m 25,7 km/h (4 Bft) 93,62 %
04.01.2020 11:36 5,1 C 5,0 C 4,4 C 97 % 1029,8 hPa 0,0 l/m 0 min 0 min 80 W/m 9,7 km/h (2 Bft) 91,49 %
04.01.2020 11:38 5,1 C 5,0 C 4,4 C 97 % 1029,8 hPa 0,0 l/m 0 min 0 min 89 W/m 6,4 km/h (2 Bft) 95,65 %
04.01.2020 11:40 5,2 C 5,6 C 4,4 C 97 % 1029,8 hPa 0,0 l/m 0 min 0 min 97 W/m 3,2 km/h (1 Bft) 95,74 %
04.01.2020 11:42 5,2 C 5,6 C 4,4 C 97 % 1029,7 hPa 0,0 l/m 0 min 0 min 95 W/m 9,7 km/h (2 Bft) 95,74 %
04.01.2020 11:44 5,2 C 5,6 C 4,4 C 97 % 1029,7 hPa 0,0 l/m 0 min 0 min 91 W/m 22,5 km/h (4 Bft) 95,74 %
04.01.2020 11:46 5,3 C 5,6 C 5,0 C 97 % 1029,7 hPa 0,0 l/m 0 min 0 min 97 W/m 0,0 km/h (0 Bft) 95,74 %
04.01.2020 11:48 5,3 C 5,6 C 5,0 C 97 % 1029,7 hPa 0,0 l/m 0 min 0 min 100 W/m 19,3 km/h (3 Bft) 93,48 %
04.01.2020 11:50 5,3 C 5,6 C 5,0 C 97 % 1029,7 hPa 0,0 l/m 0 min 0 min 97 W/m 12,9 km/h (3 Bft) 97,87 %
04.01.2020 11:52 5,4 C 5,6 C 5,0 C 97 % 1029,7 hPa 0,0 l/m 0 min 0 min 91 W/m 12,9 km/h (3 Bft) 95,74 %
04.01.2020 11:54 5,4 C 5,6 C 5,0 C 97 % 1029,7 hPa 0,0 l/m 0 min 0 min 83 W/m 0,0 km/h (0 Bft) 91,49 %
04.01.2020 11:56 5,4 C 5,6 C 5,0 C 97 % 1029,6 hPa 0,0 l/m 0 min 0 min 88 W/m 16,1 km/h (3 Bft) 95,74 %
04.01.2020 11:58 5,4 C 5,6 C 5,0 C 97 % 1029,6 hPa 0,0 l/m 0 min 0 min 95 W/m 16,1 km/h (3 Bft) 95,74 %
04.01.2020 12:00 5,5 C 5,6 C 5,0 C 96 % 1029,6 hPa 0,0 l/m 0 min 0 min 92 W/m 12,9 km/h (3 Bft) 95,65 %
04.01.2020 12:02 5,5 C 5,6 C 5,0 C 96 % 1029,5 hPa 0,0 l/m 0 min 0 min 80 W/m 6,4 km/h (2 Bft) 93,62 %
04.01.2020 12:04 5,6 C 5,6 C 5,0 C 96 % 1029,5 hPa 0,0 l/m 0 min 0 min 70 W/m 3,2 km/h (1 Bft) 93,62 %
04.01.2020 12:06 5,6 C 5,6 C 5,0 C 96 % 1029,4 hPa 0,0 l/m 0 min 0 min 75 W/m 0,0 km/h (0 Bft) 95,74 %
04.01.2020 12:08 5,6 C 5,6 C 5,0 C 96 % 1029,5 hPa 0,0 l/m 0 min 0 min 80 W/m 3,2 km/h (1 Bft) 93,62 %
04.01.2020 12:10 5,6 C 5,6 C 5,0 C 96 % 1029,5 hPa 0,0 l/m 0 min 0 min 85 W/m 6,4 km/h (2 Bft) 95,74 %
04.01.2020 12:12 5,6 C 5,6 C 5,0 C 96 % 1029,5 hPa 0,0 l/m 0 min 0 min 84 W/m 12,9 km/h (3 Bft) 97,83 %
04.01.2020 12:14 5,6 C 5,6 C 5,0 C 96 % 1029,5 hPa 0,0 l/m 0 min 0 min 75 W/m 0,0 km/h (0 Bft) 97,87 %
04.01.2020 12:16 5,6 C 5,6 C 5,0 C 96 % 1029,5 hPa 0,0 l/m 0 min 0 min 94 W/m 3,2 km/h (1 Bft) 95,74 %
04.01.2020 12:18 5,7 C 5,6 C 5,0 C 96 % 1029,5 hPa 0,0 l/m 0 min 0 min 106 W/m 16,1 km/h (3 Bft) 93,62 %
04.01.2020 12:20 5,7 C 6,1 C 5,0 C 96 % 1029,4 hPa 0,0 l/m 0 min 0 min 134 W/m 12,9 km/h (3 Bft) 97,87 %
04.01.2020 12:22 5,7 C 6,1 C 5,0 C 96 % 1029,5 hPa 0,0 l/m 0 min 0 min 137 W/m 6,4 km/h (2 Bft) 97,87 %
04.01.2020 12:24 5,7 C 6,1 C 5,0 C 96 % 1029,4 hPa 0,0 l/m 0 min 0 min 137 W/m 3,2 km/h (1 Bft) 95,65 %
04.01.2020 12:26 5,7 C 6,1 C 5,6 C 96 % 1029,3 hPa 0,0 l/m 2 min 0 min 162 W/m 0,0 km/h (0 Bft) 95,74 %
04.01.2020 12:28 5,8 C 6,1 C 5,6 C 96 % 1029,4 hPa 0,0 l/m 0 min 0 min 149 W/m 9,7 km/h (2 Bft) 95,74 %
04.01.2020 12:30 5,8 C 6,1 C 5,6 C 96 % 1029,4 hPa 0,0 l/m 0 min 0 min 116 W/m 0,0 km/h (0 Bft) 97,87 %
04.01.2020 12:32 5,9 C 6,1 C 5,6 C 96 % 1029,4 hPa 0,0 l/m 0 min 0 min 103 W/m 3,2 km/h (1 Bft) 95,74 %
04.01.2020 12:34 5,9 C 6,1 C 5,6 C 96 % 1029,5 hPa 0,0 l/m 0 min 0 min 101 W/m 3,2 km/h (1 Bft) 91,49 %
04.01.2020 12:36 5,9 C 6,1 C 5,6 C 96 % 1029,6 hPa 0,0 l/m 0 min 0 min 97 W/m 12,9 km/h (3 Bft) 95,65 %
04.01.2020 12:38 5,9 C 6,1 C 5,0 C 96 % 1029,4 hPa 0,0 l/m 0 min 0 min 85 W/m 12,9 km/h (3 Bft) 97,87 %
04.01.2020 12:40 5,9 C 6,1 C 5,0 C 96 % 1029,4 hPa 0,0 l/m 0 min 0 min 77 W/m 3,2 km/h (1 Bft) 97,87 %
04.01.2020 12:42 5,9 C 6,1 C 5,0 C 96 % 1029,5 hPa 0,0 l/m 0 min 0 min 75 W/m 0,0 km/h (0 Bft) 97,87 %
04.01.2020 12:44 5,9 C 6,1 C 5,0 C 95 % 1029,5 hPa 0,0 l/m 0 min 0 min 77 W/m 9,7 km/h (2 Bft) 95,74 %
04.01.2020 12:46 6,0 C 6,1 C 5,0 C 95 % 1029,5 hPa 0,0 l/m 0 min 0 min 78 W/m 16,1 km/h (3 Bft) 97,83 %
04.01.2020 12:48 6,0 C 6,1 C 5,0 C 95 % 1029,5 hPa 0,0 l/m 0 min 0 min 74 W/m 0,0 km/h (0 Bft) 51,16 %
04.01.2020 12:50 6,0 C 6,1 C 5,0 C 95 % 1029,6 hPa 0,0 l/m 0 min 0 min 66 W/m 0,0 km/h (0 Bft) 100,00 %
04.01.2020 12:52 6,0 C 6,1 C 5,0 C 95 % 1029,7 hPa 0,0 l/m 0 min 0 min 69 W/m 6,4 km/h (2 Bft) 100,00 %
04.01.2020 12:54 6,1 C 6,1 C 5,0 C 95 % 1029,7 hPa 0,0 l/m 0 min 0 min 66 W/m 3,2 km/h (1 Bft) 100,00 %
04.01.2020 12:56 6,1 C 6,1 C 5,0 C 95 % 1029,6 hPa 0,0 l/m 0 min 0 min 58 W/m 19,3 km/h (3 Bft) 100,00 %
04.01.2020 12:58 6,1 C 6,1 C 5,0 C 95 % 1029,6 hPa 0,0 l/m 0 min 0 min 59 W/m 3,2 km/h (1 Bft) 100,00 %
04.01.2020 13:00 6,1 C 6,1 C 5,0 C 95 % 1029,5 hPa 0,0 l/m 0 min 0 min 58 W/m 3,2 km/h (1 Bft) 100,00 %
04.01.2020 13:02 6,1 C 6,1 C 5,0 C 95 % 1029,4 hPa 0,0 l/m 0 min 0 min 58 W/m 0,0 km/h (0 Bft) 100,00 %
04.01.2020 13:04 6,1 C 6,1 C 5,6 C 95 % 1029,3 hPa 0,0 l/m 0 min 0 min 66 W/m 12,9 km/h (3 Bft) 100,00 %
04.01.2020 13:06 6,1 C 6,1 C 5,6 C 95 % 1029,3 hPa 0,0 l/m 0 min 0 min 70 W/m 19,3 km/h (3 Bft) 100,00 %
04.01.2020 13:08 6,2 C 6,1 C 5,6 C 95 % 1029,3 hPa 0,0 l/m 0 min 0 min 65 W/m 12,9 km/h (3 Bft) 100,00 %
04.01.2020 13:10 6,2 C 6,1 C 5,6 C 95 % 1029,4 hPa 0,0 l/m 0 min 0 min 61 W/m 19,3 km/h (3 Bft) 100,00 %
04.01.2020 13:12 6,2 C 6,1 C 5,6 C 95 % 1029,4 hPa 0,0 l/m 0 min 0 min 63 W/m 3,2 km/h (1 Bft) 97,87 %
04.01.2020 13:14 6,2 C 6,1 C 5,6 C 95 % 1029,5 hPa 0,0 l/m 0 min 0 min 61 W/m 9,7 km/h (2 Bft) 100,00 %
04.01.2020 13:16 6,3 C 6,1 C 5,6 C 95 % 1029,5 hPa 0,0 l/m 0 min 0 min 56 W/m 29,0 km/h (5 Bft) 97,87 %
04.01.2020 13:18 6,3 C 6,1 C 5,6 C 95 % 1029,5 hPa 0,0 l/m 0 min 0 min 57 W/m 12,9 km/h (3 Bft) 100,00 %
04.01.2020 13:20 6,3 C 6,1 C 5,6 C 95 % 1029,5 hPa 0,0 l/m 0 min 0 min 56 W/m 3,2 km/h (1 Bft) 100,00 %
04.01.2020 13:22 6,3 C 6,1 C 5,6 C 95 % 1029,5 hPa 0,0 l/m 0 min 0 min 52 W/m 12,9 km/h (3 Bft) 100,00 %
04.01.2020 13:24 6,3 C 6,1 C 5,6 C 94 % 1029,5 hPa 0,0 l/m 0 min 0 min 47 W/m 12,9 km/h (3 Bft) 100,00 %
04.01.2020 13:26 6,3 C 6,1 C 5,6 C 94 % 1029,5 hPa 0,0 l/m 0 min 0 min 47 W/m 16,1 km/h (3 Bft) 100,00 %
04.01.2020 13:28 6,3 C 6,1 C 5,6 C 94 % 1029,4 hPa 0,0 l/m 0 min 0 min 51 W/m 9,7 km/h (2 Bft) 100,00 %
04.01.2020 13:30 6,3 C 6,1 C 5,6 C 94 % 1029,4 hPa 0,0 l/m 0 min 0 min 54 W/m 22,5 km/h (4 Bft) 100,00 %
04.01.2020 13:32 6,4 C 6,1 C 5,6 C 94 % 1029,5 hPa 0,0 l/m 0 min 0 min 55 W/m 19,3 km/h (3 Bft) 100,00 %
04.01.2020 13:34 6,4 C 6,1 C 5,6 C 94 % 1029,4 hPa 0,0 l/m 0 min 0 min 51 W/m 3,2 km/h (1 Bft) 100,00 %
04.01.2020 13:36 6,4 C 6,1 C 5,6 C 94 % 1029,4 hPa 0,0 l/m 0 min 0 min 42 W/m 16,1 km/h (3 Bft) 100,00 %
04.01.2020 13:38 6,4 C 6,1 C 5,6 C 94 % 1029,4 hPa 0,0 l/m 0 min 0 min 37 W/m 19,3 km/h (3 Bft) 100,00 %
04.01.2020 13:40 6,4 C 6,1 C 5,6 C 94 % 1029,5 hPa 0,0 l/m 0 min 0 min 32 W/m 16,1 km/h (3 Bft) 100,00 %
04.01.2020 13:42 6,5 C 6,1 C 5,6 C 94 % 1029,4 hPa 0,0 l/m 0 min 0 min 33 W/m 16,1 km/h (3 Bft) 100,00 %
04.01.2020 13:44 6,5 C 6,1 C 5,6 C 94 % 1029,5 hPa 0,0 l/m 0 min 0 min 38 W/m 12,9 km/h (3 Bft) 100,00 %
04.01.2020 13:46 6,5 C 6,1 C 5,6 C 94 % 1029,5 hPa 0,0 l/m 0 min 0 min 35 W/m 3,2 km/h (1 Bft) 100,00 %
04.01.2020 13:48 6,5 C 6,1 C 5,6 C 94 % 1029,5 hPa 0,0 l/m 0 min 0 min 32 W/m 16,1 km/h (3 Bft) 100,00 %
04.01.2020 13:50 6,5 C 6,1 C 5,6 C 94 % 1029,6 hPa 0,0 l/m 0 min 0 min 37 W/m 9,7 km/h (2 Bft) 100,00 %
04.01.2020 13:52 6,5 C 6,1 C 5,6 C 94 % 1029,6 hPa 0,0 l/m 0 min 0 min 35 W/m 3,2 km/h (1 Bft) 100,00 %
04.01.2020 13:54 6,5 C 6,1 C 5,6 C 94 % 1029,6 hPa 0,0 l/m 0 min 0 min 30 W/m 0,0 km/h (0 Bft) 93,62 %
04.01.2020 13:56 6,5 C 6,1 C 5,6 C 93 % 1029,5 hPa 0,0 l/m 0 min 0 min 32 W/m 12,9 km/h (3 Bft) 93,48 %
04.01.2020 13:58 6,5 C 6,1 C 5,6 C 93 % 1029,5 hPa 0,0 l/m 0 min 0 min 32 W/m 0,0 km/h (0 Bft) 95,74 %
04.01.2020 14:00 6,6 C 6,1 C 5,6 C 93 % 1029,6 hPa 0,0 l/m 0 min 0 min 29 W/m 9,7 km/h (2 Bft) 95,74 %
04.01.2020 14:02 6,6 C 6,1 C 5,6 C 93 % 1029,6 hPa 0,0 l/m 0 min 0 min 27 W/m 9,7 km/h (2 Bft) 95,74 %
04.01.2020 14:04 6,6 C 6,1 C 5,6 C 93 % 1029,6 hPa 0,0 l/m 0 min 0 min 28 W/m 3,2 km/h (1 Bft) 95,74 %
04.01.2020 14:06 6,6 C 6,1 C 5,6 C 93 % 1029,7 hPa 0,0 l/m 0 min 0 min 30 W/m 16,1 km/h (3 Bft) 95,74 %
04.01.2020 14:08 6,6 C 6,1 C 5,6 C 93 % 1029,7 hPa 0,0 l/m 0 min 0 min 30 W/m 6,4 km/h (2 Bft) 95,65 %
04.01.2020 14:10 6,6 C 6,1 C 5,6 C 93 % 1029,6 hPa 0,0 l/m 0 min 0 min 29 W/m 3,2 km/h (1 Bft) 93,62 %
04.01.2020 14:12 6,6 C 6,1 C 5,6 C 93 % 1029,7 hPa 0,0 l/m 0 min 0 min 27 W/m 9,7 km/h (2 Bft) 93,62 %
04.01.2020 14:14 6,6 C 6,1 C 5,6 C 93 % 1029,7 hPa 0,0 l/m 0 min 0 min 32 W/m 9,7 km/h (2 Bft) 95,74 %
04.01.2020 14:16 6,6 C 6,1 C 5,6 C 93 % 1029,7 hPa 0,0 l/m 0 min 0 min 32 W/m 3,2 km/h (1 Bft) 95,74 %
04.01.2020 14:18 6,6 C 6,1 C 5,6 C 93 % 1029,7 hPa 0,0 l/m 0 min 0 min 32 W/m 12,9 km/h (3 Bft) 95,74 %
04.01.2020 14:20 6,6 C 6,1 C 5,6 C 93 % 1029,7 hPa 0,0 l/m 0 min 0 min 35 W/m 9,7 km/h (2 Bft) 95,65 %
04.01.2020 14:22 6,6 C 6,1 C 5,6 C 93 % 1029,6 hPa 0,0 l/m 0 min 0 min 35 W/m 3,2 km/h (1 Bft) 95,74 %
04.01.2020 14:24 6,7 C 6,1 C 5,6 C 93 % 1029,7 hPa 0,0 l/m 0 min 0 min 31 W/m 0,0 km/h (0 Bft) 93,62 %
04.01.2020 14:26 6,7 C 6,1 C 5,6 C 93 % 1029,6 hPa 0,0 l/m 0 min 0 min 30 W/m 19,3 km/h (3 Bft) 93,62 %
04.01.2020 14:28 6,7 C 6,1 C 5,6 C 93 % 1029,6 hPa 0,0 l/m 0 min 0 min 31 W/m 0,0 km/h (0 Bft) 93,62 %
04.01.2020 14:30 6,7 C 6,1 C 5,6 C 93 % 1029,7 hPa 0,0 l/m 0 min 0 min 28 W/m 3,2 km/h (1 Bft) 91,49 %
04.01.2020 14:32 6,7 C 6,7 C 5,6 C 93 % 1029,6 hPa 0,0 l/m 0 min 0 min 26 W/m 16,1 km/h (3 Bft) 95,65 %
04.01.2020 14:34 6,7 C 6,7 C 5,6 C 93 % 1029,7 hPa 0,0 l/m 0 min 0 min 26 W/m 16,1 km/h (3 Bft) 95,74 %
04.01.2020 14:36 6,8 C 6,1 C 5,6 C 93 % 1029,6 hPa 0,0 l/m 0 min 0 min 26 W/m 9,7 km/h (2 Bft) 97,87 %
04.01.2020 14:38 6,8 C 6,7 C 5,6 C 93 % 1029,6 hPa 0,0 l/m 0 min 0 min 26 W/m 6,4 km/h (2 Bft) 97,87 %
04.01.2020 14:40 6,8 C 6,1 C 5,6 C 93 % 1029,6 hPa 0,0 l/m 0 min 0 min 25 W/m 3,2 km/h (1 Bft) 97,87 %
04.01.2020 14:42 6,8 C 6,1 C 5,6 C 93 % 1029,6 hPa 0,0 l/m 0 min 0 min 21 W/m 12,9 km/h (3 Bft) 95,65 %
04.01.2020 14:44 6,8 C 6,1 C 5,6 C 93 % 1029,6 hPa 0,0 l/m 0 min 0 min 22 W/m 3,2 km/h (1 Bft) 97,87 %
04.01.2020 14:46 6,8 C 6,1 C 5,6 C 93 % 1029,6 hPa 0,0 l/m 0 min 0 min 22 W/m 22,5 km/h (4 Bft) 97,87 %
04.01.2020 14:48 6,8 C 6,7 C 5,6 C 93 % 1029,6 hPa 0,0 l/m 0 min 0 min 21 W/m 0,0 km/h (0 Bft) 95,74 %
04.01.2020 14:50 6,8 C 6,7 C 5,6 C 93 % 1029,6 hPa 0,0 l/m 0 min 0 min 21 W/m 9,7 km/h (2 Bft) 93,62 %
04.01.2020 14:52 6,8 C 6,1 C 5,6 C 93 % 1029,6 hPa 0,0 l/m 0 min 0 min 20 W/m 3,2 km/h (1 Bft) 97,87 %
04.01.2020 14:54 6,8 C 6,1 C 5,6 C 93 % 1029,6 hPa 0,0 l/m 0 min 0 min 18 W/m 6,4 km/h (2 Bft) 100,00 %
04.01.2020 14:56 6,8 C 6,1 C 5,6 C 93 % 1029,6 hPa 0,0 l/m 0 min 0 min 16 W/m 6,4 km/h (2 Bft) 97,87 %
04.01.2020 14:58 6,8 C 6,1 C 5,6 C 93 % 1029,6 hPa 0,0 l/m 0 min 0 min 14 W/m 9,7 km/h (2 Bft) 97,87 %
04.01.2020 15:00 6,8 C 6,1 C 5,6 C 93 % 1029,5 hPa 0,0 l/m 0 min 0 min 15 W/m 16,1 km/h (3 Bft) 95,74 %
04.01.2020 15:02 6,8 C 6,1 C 5,6 C 93 % 1029,5 hPa 0,0 l/m 0 min 0 min 14 W/m 3,2 km/h (1 Bft) 100,00 %
04.01.2020 15:04 6,8 C 6,7 C 5,6 C 92 % 1029,6 hPa 0,0 l/m 0 min 0 min 15 W/m 0,0 km/h (0 Bft) 97,87 %
04.01.2020 15:06 6,9 C 6,7 C 5,6 C 93 % 1029,5 hPa 0,0 l/m 0 min 0 min 12 W/m 6,4 km/h (2 Bft) 97,83 %
04.01.2020 15:08 6,9 C 6,7 C 5,6 C 93 % 1029,5 hPa 0,0 l/m 0 min 0 min 12 W/m 29,0 km/h (5 Bft) 97,87 %
04.01.2020 15:10 6,9 C 6,7 C 5,6 C 93 % 1029,6 hPa 0,0 l/m 0 min 0 min 13 W/m 12,9 km/h (3 Bft) 97,87 %
04.01.2020 15:12 6,9 C 6,1 C 5,6 C 93 % 1029,6 hPa 0,0 l/m 0 min 0 min 13 W/m 0,0 km/h (0 Bft) 95,74 %
04.01.2020 15:14 6,9 C 6,1 C 5,6 C 93 % 1029,7 hPa 0,0 l/m 0 min 0 min 14 W/m 6,4 km/h (2 Bft) 97,87 %
04.01.2020 15:16 6,9 C 6,7 C 5,6 C 93 % 1029,6 hPa 0,0 l/m 0 min 0 min 16 W/m 3,2 km/h (1 Bft) 95,74 %
04.01.2020 15:18 6,9 C 6,7 C 5,6 C 93 % 1029,6 hPa 0,0 l/m 0 min 0 min 17 W/m 9,7 km/h (2 Bft) 97,83 %
04.01.2020 15:20 6,9 C 6,7 C 5,6 C 92 % 1029,5 hPa 0,0 l/m 0 min 0 min 18 W/m 9,7 km/h (2 Bft) 97,87 %
04.01.2020 15:22 6,9 C 6,7 C 5,6 C 92 % 1029,6 hPa 0,0 l/m 0 min 0 min 18 W/m 9,7 km/h (2 Bft) 97,87 %
04.01.2020 15:24 6,9 C 6,7 C 5,6 C 92 % 1029,5 hPa 0,0 l/m 0 min 0 min 18 W/m 16,1 km/h (3 Bft) 97,87 %
04.01.2020 15:26 6,9 C 6,7 C 5,6 C 92 % 1029,5 hPa 0,0 l/m 0 min 0 min 18 W/m 3,2 km/h (1 Bft) 97,87 %
04.01.2020 15:28 6,9 C 6,7 C 5,6 C 92 % 1029,5 hPa 0,0 l/m 0 min 0 min 17 W/m 6,4 km/h (2 Bft) 97,87 %
04.01.2020 15:30 6,9 C 6,7 C 5,6 C 92 % 1029,4 hPa 0,0 l/m 0 min 0 min 15 W/m 12,9 km/h (3 Bft) 97,83 %
04.01.2020 15:32 6,9 C 6,7 C 5,6 C 92 % 1029,4 hPa 0,0 l/m 0 min 0 min 16 W/m 0,0 km/h (0 Bft) 97,87 %
04.01.2020 15:34 6,9 C 6,7 C 5,6 C 92 % 1029,4 hPa 0,0 l/m 0 min 0 min 14 W/m 0,0 km/h (0 Bft) 95,74 %
04.01.2020 15:36 6,9 C 6,7 C 5,6 C 92 % 1029,4 hPa 0,0 l/m 0 min 0 min 16 W/m 0,0 km/h (0 Bft) 95,74 %
04.01.2020 15:38 6,9 C 6,7 C 5,6 C 92 % 1029,4 hPa 0,0 l/m 0 min 0 min 16 W/m 0,0 km/h (0 Bft) 97,87 %
04.01.2020 15:40 6,9 C 6,7 C 5,6 C 92 % 1029,5 hPa 0,0 l/m 0 min 0 min 16 W/m 9,7 km/h (2 Bft) 97,83 %
04.01.2020 15:42 6,9 C 6,7 C 5,6 C 92 % 1029,5 hPa 0,0 l/m 0 min 0 min 14 W/m 6,4 km/h (2 Bft) 97,87 %
04.01.2020 15:44 7,0 C 6,7 C 5,6 C 92 % 1029,5 hPa 0,0 l/m 0 min 0 min 13 W/m 9,7 km/h (2 Bft) 97,87 %
04.01.2020 15:46 7,0 C 6,7 C 5,6 C 92 % 1029,4 hPa 0,0 l/m 0 min 0 min 11 W/m 12,9 km/h (3 Bft) 95,74 %
04.01.2020 15:48 7,0 C 6,7 C 5,6 C 92 % 1029,4 hPa 0,0 l/m 0 min 0 min 9 W/m 9,7 km/h (2 Bft) 97,87 %
04.01.2020 15:50 7,0 C 6,7 C 5,6 C 92 % 1029,5 hPa 0,0 l/m 0 min 0 min 7 W/m 3,2 km/h (1 Bft) 97,87 %
04.01.2020 15:52 7,0 C 6,7 C 5,6 C 92 % 1029,5 hPa 0,0 l/m 0 min 0 min 7 W/m 3,2 km/h (1 Bft) 97,83 %
04.01.2020 15:54 7,0 C 6,1 C 5,6 C 92 % 1029,5 hPa 0,0 l/m 0 min 0 min 7 W/m 22,5 km/h (4 Bft) 97,87 %
04.01.2020 15:56 7,0 C 6,7 C 5,6 C 92 % 1029,5 hPa 0,0 l/m 0 min 0 min 7 W/m 9,7 km/h (2 Bft) 97,87 %
04.01.2020 15:58 7,0 C 6,7 C 5,6 C 92 % 1029,6 hPa 0,0 l/m 0 min 0 min 6 W/m 16,1 km/h (3 Bft) 97,87 %
04.01.2020 16:00 7,0 C 6,7 C 5,6 C 92 % 1029,6 hPa 0,0 l/m 0 min 0 min 5 W/m 19,3 km/h (3 Bft) 100,00 %
04.01.2020 16:02 7,0 C 6,7 C 5,6 C 92 % 1029,7 hPa 0,0 l/m 0 min 0 min 7 W/m 16,1 km/h (3 Bft) 100,00 %
04.01.2020 16:04 7,0 C 6,7 C 5,6 C 92 % 1029,7 hPa 0,0 l/m 0 min 0 min 7 W/m 9,7 km/h (2 Bft) 100,00 %
04.01.2020 16:06 7,0 C 6,7 C 5,6 C 92 % 1029,7 hPa 0,0 l/m 0 min 0 min 6 W/m 9,7 km/h (2 Bft) 100,00 %
04.01.2020 16:08 7,0 C 6,7 C 5,6 C 92 % 1029,7 hPa 0,0 l/m 0 min 0 min 5 W/m 25,7 km/h (4 Bft) 100,00 %
04.01.2020 16:10 7,0 C 6,1 C 5,6 C 92 % 1029,7 hPa 0,0 l/m 0 min 0 min 5 W/m 16,1 km/h (3 Bft) 100,00 %
04.01.2020 16:12 7,0 C 6,7 C 5,6 C 92 % 1029,7 hPa 0,0 l/m 0 min 0 min 5 W/m 16,1 km/h (3 Bft) 100,00 %
04.01.2020 16:14 7,0 C 6,7 C 5,6 C 92 % 1029,7 hPa 0,0 l/m 0 min 0 min 5 W/m 12,9 km/h (3 Bft) 100,00 %
04.01.2020 16:16 7,0 C 6,7 C 5,6 C 92 % 1029,8 hPa 0,0 l/m 0 min 0 min 5 W/m 6,4 km/h (2 Bft) 100,00 %
04.01.2020 16:18 7,0 C 6,7 C 5,6 C 92 % 1029,9 hPa 0,0 l/m 0 min 0 min 5 W/m 22,5 km/h (4 Bft) 100,00 %
04.01.2020 16:20 7,0 C 6,1 C 5,6 C 92 % 1029,8 hPa 0,0 l/m 0 min 0 min 5 W/m 6,4 km/h (2 Bft) 100,00 %
04.01.2020 16:22 7,0 C 6,1 C 5,6 C 92 % 1029,9 hPa 0,0 l/m 0 min 0 min 5 W/m 22,5 km/h (4 Bft) 97,87 %
04.01.2020 16:24 7,0 C 6,7 C 5,6 C 92 % 1029,9 hPa 0,0 l/m 0 min 0 min 1 W/m 25,7 km/h (4 Bft) 97,87 %
04.01.2020 16:26 7,0 C 6,7 C 5,6 C 92 % 1029,9 hPa 0,0 l/m 0 min 0 min 0 W/m 12,9 km/h (3 Bft) 97,87 %
04.01.2020 16:28 7,0 C 6,1 C 5,6 C 92 % 1029,9 hPa 0,0 l/m 0 min 0 min 0 W/m 9,7 km/h (2 Bft) 97,83 %
04.01.2020 16:30 7,0 C 6,1 C 5,6 C 92 % 1030,0 hPa 0,0 l/m 0 min 0 min 0 W/m 16,1 km/h (3 Bft) 97,87 %
04.01.2020 16:32 7,0 C 6,1 C 5,6 C 92 % 1030,1 hPa 0,0 l/m 0 min 0 min 0 W/m 22,5 km/h (4 Bft) 93,62 %
04.01.2020 16:34 7,0 C 6,1 C 5,6 C 93 % 1030,1 hPa 0,0 l/m 0 min 0 min 0 W/m 29,0 km/h (5 Bft) 97,87 %
04.01.2020 16:36 7,0 C 6,1 C 5,6 C 93 % 1030,2 hPa 0,0 l/m 0 min 0 min 0 W/m 16,1 km/h (3 Bft) 97,87 %
04.01.2020 16:38 7,0 C 6,1 C 5,6 C 93 % 1030,1 hPa 0,0 l/m 0 min 0 min 0 W/m 3,2 km/h (1 Bft) 97,87 %
04.01.2020 16:40 7,0 C 6,1 C 5,6 C 93 % 1030,1 hPa 0,0 l/m 0 min 0 min 0 W/m 19,3 km/h (3 Bft) 97,83 %
04.01.2020 16:42 7,0 C 6,1 C 5,6 C 93 % 1030,2 hPa 0,0 l/m 0 min 0 min 0 W/m 3,2 km/h (1 Bft) 97,87 %
04.01.2020 16:44 6,9 C 6,1 C 5,6 C 93 % 1030,2 hPa 0,0 l/m 0 min 0 min 0 W/m 19,3 km/h (3 Bft) 95,74 %
04.01.2020 16:46 6,9 C 6,1 C 5,6 C 93 % 1030,3 hPa 0,0 l/m 0 min 0 min 0 W/m 3,2 km/h (1 Bft) 97,87 %
04.01.2020 16:48 6,9 C 6,1 C 5,6 C 93 % 1030,2 hPa 0,0 l/m 0 min 0 min 0 W/m 3,2 km/h (1 Bft) 95,74 %
04.01.2020 16:50 6,9 C 6,1 C 5,6 C 93 % 1030,1 hPa 0,0 l/m 0 min 0 min 0 W/m 6,4 km/h (2 Bft) 97,83 %
04.01.2020 16:52 6,9 C 6,1 C 5,6 C 93 % 1030,2 hPa 0,0 l/m 0 min 0 min 0 W/m 22,5 km/h (4 Bft) 97,87 %
04.01.2020 16:54 6,9 C 6,1 C 5,6 C 93 % 1030,1 hPa 0,0 l/m 0 min 0 min 0 W/m 6,4 km/h (2 Bft) 95,74 %
04.01.2020 16:56 6,9 C 6,1 C 5,6 C 93 % 1030,1 hPa 0,0 l/m 0 min 0 min 0 W/m 19,3 km/h (3 Bft) 97,87 %
04.01.2020 16:58 6,9 C 6,1 C 5,6 C 93 % 1030,1 hPa 0,0 l/m 0 min 0 min 0 W/m 16,1 km/h (3 Bft) 97,87 %
04.01.2020 17:00 6,8 C 6,1 C 5,6 C 93 % 1030,1 hPa 0,0 l/m 0 min 0 min 0 W/m 19,3 km/h (3 Bft) 97,87 %
04.01.2020 17:02 6,8 C 6,1 C 5,6 C 94 % 1030,2 hPa 0,0 l/m 0 min 0 min 0 W/m 12,9 km/h (3 Bft) 97,83 %
04.01.2020 17:04 6,8 C 6,1 C 5,6 C 94 % 1030,1 hPa 0,0 l/m 0 min 0 min 0 W/m 12,9 km/h (3 Bft) 97,87 %
04.01.2020 17:06 6,8 C 6,1 C 5,6 C 94 % 1030,1 hPa 0,0 l/m 0 min 0 min 0 W/m 3,2 km/h (1 Bft) 95,74 %
04.01.2020 17:08 6,8 C 6,1 C 5,6 C 94 % 1030,2 hPa 0,0 l/m 0 min 0 min 0 W/m 9,7 km/h (2 Bft) 95,74 %
04.01.2020 17:10 6,8 C 6,1 C 5,6 C 94 % 1030,2 hPa 0,0 l/m 0 min 0 min 0 W/m 19,3 km/h (3 Bft) 97,87 %
04.01.2020 17:12 6,8 C 6,1 C 5,6 C 94 % 1030,3 hPa 0,0 l/m 0 min 0 min 0 W/m 9,7 km/h (2 Bft) 95,74 %
04.01.2020 17:14 6,8 C 6,1 C 5,6 C 94 % 1030,3 hPa 0,0 l/m 0 min 0 min 0 W/m 6,4 km/h (2 Bft) 95,65 %
04.01.2020 17:16 6,8 C 6,1 C 5,6 C 94 % 1030,4 hPa 0,0 l/m 0 min 0 min 0 W/m 3,2 km/h (1 Bft) 97,87 %
04.01.2020 17:18 6,8 C 6,1 C 5,6 C 94 % 1030,4 hPa 0,0 l/m 0 min 0 min 0 W/m 9,7 km/h (2 Bft) 97,87 %
04.01.2020 17:20 6,8 C 6,1 C 5,6 C 94 % 1030,5 hPa 0,0 l/m 0 min 0 min 0 W/m 6,4 km/h (2 Bft) 97,87 %
04.01.2020 17:22 6,8 C 6,1 C 5,6 C 94 % 1030,6 hPa 0,0 l/m 0 min 0 min 0 W/m 0,0 km/h (0 Bft) 97,87 %
04.01.2020 17:24 6,8 C 6,1 C 5,6 C 94 % 1030,5 hPa 0,0 l/m 0 min 0 min 0 W/m 19,3 km/h (3 Bft) 97,87 %
04.01.2020 17:26 6,7 C 6,1 C 5,6 C 94 % 1030,6 hPa 0,0 l/m 0 min 0 min 0 W/m 9,7 km/h (2 Bft) 97,83 %
04.01.2020 17:28 6,7 C 6,1 C 5,6 C 94 % 1030,6 hPa 0,0 l/m 0 min 0 min 0 W/m 19,3 km/h (3 Bft) 97,87 %
04.01.2020 17:30 6,7 C 6,1 C 5,6 C 94 % 1030,6 hPa 0,0 l/m 0 min 0 min 0 W/m 3,2 km/h (1 Bft) 97,87 %
04.01.2020 17:32 6,7 C 6,1 C 5,6 C 94 % 1030,7 hPa 0,0 l/m 0 min 0 min 0 W/m 3,2 km/h (1 Bft) 97,87 %
04.01.2020 17:34 6,7 C 6,1 C 5,0 C 94 % 1030,7 hPa 0,0 l/m 0 min 0 min 0 W/m 0,0 km/h (0 Bft) 97,87 %
04.01.2020 17:36 6,7 C 6,1 C 5,0 C 95 % 1030,7 hPa 0,0 l/m 0 min 0 min 0 W/m 16,1 km/h (3 Bft) 95,65 %
04.01.2020 17:38 6,7 C 6,1 C 5,0 C 95 % 1030,8 hPa 0,0 l/m 0 min 0 min 0 W/m 9,7 km/h (2 Bft) 97,87 %
04.01.2020 17:40 6,7 C 6,1 C 5,0 C 95 % 1030,9 hPa 0,0 l/m 0 min 0 min 0 W/m 16,1 km/h (3 Bft) 97,87 %
04.01.2020 17:42 6,7 C 6,1 C 5,0 C 95 % 1030,9 hPa 0,0 l/m 0 min 0 min 0 W/m 12,9 km/h (3 Bft) 95,74 %
04.01.2020 17:44 6,6 C 6,1 C 5,0 C 95 % 1031,0 hPa 0,0 l/m 0 min 0 min 0 W/m 19,3 km/h (3 Bft) 97,87 %
04.01.2020 17:46 6,6 C 6,1 C 5,0 C 95 % 1031,0 hPa 0,0 l/m 0 min 0 min 0 W/m 3,2 km/h (1 Bft) 97,87 %
04.01.2020 17:48 6,6 C 6,1 C 5,0 C 95 % 1031,0 hPa 0,0 l/m 0 min 0 min 0 W/m 3,2 km/h (1 Bft) 97,83 %
04.01.2020 17:50 6,6 C 5,6 C 5,0 C 95 % 1031,0 hPa 0,0 l/m 0 min 0 min 0 W/m 6,4 km/h (2 Bft) 97,87 %
04.01.2020 17:52 6,6 C 5,6 C 5,0 C 95 % 1031,1 hPa 0,0 l/m 0 min 0 min 0 W/m 16,1 km/h (3 Bft) 93,62 %
04.01.2020 17:54 6,6 C 5,6 C 5,0 C 95 % 1031,1 hPa 0,0 l/m 0 min 0 min 0 W/m 0,0 km/h (0 Bft) 95,74 %
04.01.2020 17:56 6,6 C 5,6 C 5,0 C 95 % 1031,1 hPa 0,0 l/m 0 min 2 min 0 W/m 0,0 km/h (0 Bft) 95,74 %
04.01.2020 17:58 6,6 C 5,6 C 5,0 C 95 % 1031,1 hPa 0,0 l/m 0 min 0 min 0 W/m 9,7 km/h (2 Bft) 97,87 %
04.01.2020 18:00 6,6 C 5,6 C 5,0 C 95 % 1031,1 hPa 0,0 l/m 0 min 0 min 0 W/m 0,0 km/h (0 Bft) 95,65 %
04.01.2020 18:02 6,6 C 5,6 C 5,0 C 95 % 1031,1 hPa 0,0 l/m 0 min 0 min 0 W/m 0,0 km/h (0 Bft) 95,74 %
04.01.2020 18:04 6,6 C 5,6 C 5,0 C 95 % 1031,1 hPa 0,0 l/m 0 min 0 min 0 W/m 0,0 km/h (0 Bft) 95,74 %
04.01.2020 18:06 6,6 C 5,6 C 5,0 C 95 % 1031,1 hPa 0,0 l/m 0 min 0 min 0 W/m 6,4 km/h (2 Bft) 97,87 %
04.01.2020 18:08 6,6 C 5,6 C 5,0 C 95 % 1031,2 hPa 0,0 l/m 0 min 0 min 0 W/m 0,0 km/h (0 Bft) 100,00 %
04.01.2020 18:10 6,5 C 5,6 C 5,0 C 96 % 1031,2 hPa 0,0 l/m 0 min 0 min 0 W/m 3,2 km/h (1 Bft) 97,87 %
04.01.2020 18:12 6,5 C 5,6 C 5,0 C 96 % 1031,3 hPa 0,0 l/m 0 min 0 min 0 W/m 12,9 km/h (3 Bft) 97,83 %
04.01.2020 18:14 6,5 C 5,6 C 5,0 C 96 % 1031,2 hPa 0,0 l/m 0 min 2 min 0 W/m 0,0 km/h (0 Bft) 93,62 %
04.01.2020 18:16 6,5 C 5,6 C 5,0 C 96 % 1031,3 hPa 0,0 l/m 0 min 2 min 0 W/m 0,0 km/h (0 Bft) 97,87 %
04.01.2020 18:18 6,5 C 5,6 C 5,0 C 96 % 1031,3 hPa 0,0 l/m 0 min 2 min 0 W/m 0,0 km/h (0 Bft) 97,87 %
04.01.2020 18:20 6,5 C 5,6 C 5,0 C 96 % 1031,3 hPa 0,0 l/m 0 min 2 min 0 W/m 3,2 km/h (1 Bft) 93,62 %
04.01.2020 18:22 6,5 C 5,6 C 5,0 C 96 % 1031,4 hPa 0,0 l/m 0 min 0 min 0 W/m 16,1 km/h (3 Bft) 95,74 %
04.01.2020 18:24 6,4 C 5,6 C 5,0 C 96 % 1031,3 hPa 0,0 l/m 0 min 0 min 0 W/m 9,7 km/h (2 Bft) 97,83 %
04.01.2020 18:26 6,4 C 5,6 C 5,0 C 96 % 1031,4 hPa 0,0 l/m 0 min 0 min 0 W/m 0,0 km/h (0 Bft) 97,87 %
04.01.2020 18:28 6,4 C 5,6 C 5,0 C 96 % 1031,4 hPa 0,0 l/m 0 min 0 min 0 W/m 12,9 km/h (3 Bft) 95,74 %
04.01.2020 18:30 6,4 C 5,6 C 5,0 C 96 % 1031,5 hPa 0,0 l/m 0 min 0 min 0 W/m 16,1 km/h (3 Bft) 97,87 %
04.01.2020 18:32 6,4 C 5,6 C 5,0 C 96 % 1031,5 hPa 0,0 l/m 0 min 0 min 0 W/m 3,2 km/h (1 Bft) 97,87 %
04.01.2020 18:34 6,4 C 5,6 C 5,0 C 96 % 1031,4 hPa 0,0 l/m 0 min 0 min 0 W/m 12,9 km/h (3 Bft) 95,74 %
04.01.2020 18:36 6,4 C 5,0 C 5,0 C 96 % 1031,5 hPa 0,0 l/m 0 min 0 min 0 W/m 6,4 km/h (2 Bft) 55,56 %
04.01.2020 18:38 6,4 C 5,6 C 5,0 C 97 % 1031,6 hPa 0,0 l/m 0 min 0 min 0 W/m 9,7 km/h (2 Bft) 97,87 %
04.01.2020 18:40 6,4 C 5,6 C 5,0 C 97 % 1031,6 hPa 0,0 l/m 0 min 0 min 0 W/m 3,2 km/h (1 Bft) 97,87 %
04.01.2020 18:42 6,3 C 5,6 C 5,0 C 97 % 1031,6 hPa 0,0 l/m 0 min 0 min 0 W/m 9,7 km/h (2 Bft) 97,87 %
04.01.2020 18:44 6,3 C 5,6 C 5,0 C 97 % 1031,6 hPa 0,0 l/m 0 min 0 min 0 W/m 3,2 km/h (1 Bft) 97,87 %
04.01.2020 18:46 6,3 C 5,6 C 5,0 C 97 % 1031,7 hPa 0,0 l/m 0 min 0 min 0 W/m 9,7 km/h (2 Bft) 95,65 %
04.01.2020 18:48 6,3 C 5,0 C 5,0 C 97 % 1031,6 hPa 0,0 l/m 0 min 0 min 0 W/m 0,0 km/h (0 Bft) 97,87 %
04.01.2020 18:50 6,3 C 5,0 C 5,0 C 97 % 1031,6 hPa 0,0 l/m 0 min 0 min 0 W/m 12,9 km/h (3 Bft) 97,87 %
04.01.2020 18:52 6,3 C 5,0 C 5,0 C 97 % 1031,7 hPa 0,0 l/m 0 min 0 min 0 W/m 12,9 km/h (3 Bft) 93,62 %
04.01.2020 18:54 6,3 C 5,0 C 5,0 C 97 % 1031,7 hPa 0,0 l/m 0 min 0 min 0 W/m 0,0 km/h (0 Bft) 95,74 %
04.01.2020 18:56 6,3 C 5,0 C 5,0 C 97 % 1031,8 hPa 0,0 l/m 0 min 0 min 0 W/m 0,0 km/h (0 Bft) 95,74 %
04.01.2020 18:58 6,3 C 5,6 C 5,0 C 97 % 1031,7 hPa 0,0 l/m 0 min 0 min 0 W/m 9,7 km/h (2 Bft) 95,65 %
04.01.2020 19:00 6,3 C 5,6 C 5,0 C 97 % 1031,8 hPa 0,0 l/m 0 min 0 min 0 W/m 6,4 km/h (2 Bft) 95,74 %
04.01.2020 19:02 6,3 C 5,6 C 5,0 C 97 % 1031,8 hPa 0,0 l/m 0 min 0 min 0 W/m 12,9 km/h (3 Bft) 97,87 %
04.01.2020 19:04 6,3 C 5,6 C 5,0 C 97 % 1031,8 hPa 0,0 l/m 0 min 0 min 0 W/m 3,2 km/h (1 Bft) 97,87 %
04.01.2020 19:06 6,3 C 5,6 C 5,0 C 97 % 1031,8 hPa 0,0 l/m 0 min 0 min 0 W/m 3,2 km/h (1 Bft) 97,87 %
04.01.2020 19:08 6,3 C 5,6 C 5,0 C 97 % 1031,8 hPa 0,0 l/m 0 min 0 min 0 W/m 3,2 km/h (1 Bft) 95,74 %
04.01.2020 19:10 6,3 C 5,6 C 5,0 C 97 % 1031,8 hPa 0,0 l/m 0 min 0 min 0 W/m 3,2 km/h (1 Bft) 97,83 %
04.01.2020 19:12 6,3 C 5,6 C 5,0 C 97 % 1031,8 hPa 0,0 l/m 0 min 0 min 0 W/m 6,4 km/h (2 Bft) 97,87 %
04.01.2020 19:14 6,3 C 5,6 C 5,0 C 97 % 1031,9 hPa 0,0 l/m 0 min 0 min 0 W/m 12,9 km/h (3 Bft) 97,87 %
04.01.2020 19:16 6,3 C 5,6 C 5,0 C 97 % 1031,9 hPa 0,0 l/m 0 min 0 min 0 W/m 3,2 km/h (1 Bft) 97,87 %
04.01.2020 19:18 6,3 C 5,6 C 5,0 C 98 % 1031,9 hPa 0,0 l/m 0 min 0 min 0 W/m 0,0 km/h (0 Bft) 97,87 %
04.01.2020 19:20 6,3 C 5,6 C 5,0 C 98 % 1031,8 hPa 0,0 l/m 0 min 0 min 0 W/m 0,0 km/h (0 Bft) 95,74 %
04.01.2020 19:22 6,3 C 5,6 C 5,0 C 98 % 1031,9 hPa 0,0 l/m 0 min 0 min 0 W/m 0,0 km/h (0 Bft) 97,83 %
04.01.2020 19:24 6,3 C 5,6 C 5,0 C 98 % 1031,9 hPa 0,0 l/m 0 min 0 min 0 W/m 0,0 km/h (0 Bft) 97,87 %
04.01.2020 19:26 6,3 C 5,6 C 5,0 C 98 % 1031,9 hPa 0,0 l/m 0 min 0 min 0 W/m 12,9 km/h (3 Bft) 95,74 %
04.01.2020 19:28 6,3 C 5,6 C 5,0 C 98 % 1032,0 hPa 0,0 l/m 0 min 0 min 0 W/m 12,9 km/h (3 Bft) 97,87 %
04.01.2020 19:30 6,3 C 5,6 C 5,0 C 98 % 1032,0 hPa 0,0 l/m 0 min 0 min 0 W/m 9,7 km/h (2 Bft) 97,87 %
04.01.2020 19:32 6,3 C 5,6 C 5,0 C 98 % 1032,0 hPa 0,0 l/m 0 min 0 min 0 W/m 9,7 km/h (2 Bft) 97,87 %
04.01.2020 19:34 6,3 C 5,6 C 5,0 C 98 % 1032,1 hPa 0,0 l/m 0 min 0 min 0 W/m 6,4 km/h (2 Bft) 97,83 %
04.01.2020 19:36 6,3 C 5,6 C 5,0 C 98 % 1032,0 hPa 0,0 l/m 0 min 0 min 0 W/m 12,9 km/h (3 Bft) 97,87 %
04.01.2020 19:38 6,3 C 5,6 C 5,0 C 98 % 1032,1 hPa 0,0 l/m 0 min 0 min 0 W/m 12,9 km/h (3 Bft) 97,87 %
04.01.2020 19:40 6,3 C 5,6 C 5,0 C 98 % 1032,0 hPa 0,0 l/m 0 min 0 min 0 W/m 9,7 km/h (2 Bft) 100,00 %
04.01.2020 19:42 6,3 C 5,6 C 5,0 C 98 % 1032,1 hPa 0,0 l/m 0 min 0 min 0 W/m 0,0 km/h (0 Bft) 100,00 %
04.01.2020 19:44 6,3 C 5,6 C 5,0 C 98 % 1032,1 hPa 0,0 l/m 0 min 0 min 0 W/m 3,2 km/h (1 Bft) 100,00 %
04.01.2020 19:46 6,3 C 5,6 C 5,0 C 98 % 1032,1 hPa 0,0 l/m 0 min 0 min 0 W/m 12,9 km/h (3 Bft) 95,65 %
04.01.2020 19:48 6,3 C 5,6 C 5,0 C 98 % 1032,1 hPa 0,0 l/m 0 min 0 min 0 W/m 3,2 km/h (1 Bft) 100,00 %
04.01.2020 19:50 6,3 C 5,6 C 5,0 C 98 % 1032,2 hPa 0,0 l/m 0 min 0 min 0 W/m 0,0 km/h (0 Bft) 100,00 %
04.01.2020 19:52 6,3 C 5,6 C 5,0 C 98 % 1032,2 hPa 0,0 l/m 0 min 0 min 0 W/m 16,1 km/h (3 Bft) 100,00 %
04.01.2020 19:54 6,3 C 5,6 C 5,0 C 98 % 1032,2 hPa 0,0 l/m 0 min 0 min 0 W/m 6,4 km/h (2 Bft) 100,00 %
04.01.2020 19:56 6,3 C 5,6 C 5,0 C 98 % 1032,2 hPa 0,0 l/m 0 min 0 min 0 W/m 3,2 km/h (1 Bft) 97,83 %
04.01.2020 19:58 6,3 C 5,6 C 5,0 C 98 % 1032,3 hPa 0,0 l/m 0 min 0 min 0 W/m 3,2 km/h (1 Bft) 97,87 %
04.01.2020 20:00 6,3 C 5,6 C 5,0 C 98 % 1032,4 hPa 0,0 l/m 0 min 0 min 0 W/m 6,4 km/h (2 Bft) 97,87 %
04.01.2020 20:02 6,3 C 5,6 C 5,0 C 98 % 1032,4 hPa 0,0 l/m 0 min 0 min 0 W/m 6,4 km/h (2 Bft) 97,87 %
04.01.2020 20:04 6,3 C 5,6 C 5,0 C 98 % 1032,3 hPa 0,0 l/m 0 min 0 min 0 W/m 22,5 km/h (4 Bft) 100,00 %
04.01.2020 20:06 6,3 C 5,6 C 5,0 C 98 % 1032,3 hPa 0,0 l/m 0 min 0 min 0 W/m 3,2 km/h (1 Bft) 100,00 %
04.01.2020 20:08 6,3 C 5,6 C 5,0 C 98 % 1032,3 hPa 0,0 l/m 0 min 0 min 0 W/m 16,1 km/h (3 Bft) 100,00 %
04.01.2020 20:10 6,3 C 5,6 C 5,0 C 98 % 1032,4 hPa 0,0 l/m 0 min 0 min 0 W/m 3,2 km/h (1 Bft) 100,00 %
04.01.2020 20:12 6,3 C 5,6 C 5,0 C 98 % 1032,3 hPa 0,0 l/m 0 min 0 min 0 W/m 3,2 km/h (1 Bft) 100,00 %
04.01.2020 20:14 6,3 C 5,6 C 5,0 C 98 % 1032,3 hPa 0,0 l/m 0 min 0 min 0 W/m 6,4 km/h (2 Bft) 100,00 %
04.01.2020 20:16 6,3 C 5,6 C 5,0 C 98 % 1032,3 hPa 0,0 l/m 0 min 0 min 0 W/m 9,7 km/h (2 Bft) 100,00 %
04.01.2020 20:18 6,3 C 5,6 C 5,0 C 98 % 1032,4 hPa 0,0 l/m 0 min 0 min 0 W/m 12,9 km/h (3 Bft) 100,00 %
04.01.2020 20:20 6,3 C 5,6 C 5,0 C 98 % 1032,4 hPa 0,0 l/m 0 min 0 min 0 W/m 16,1 km/h (3 Bft) 100,00 %
04.01.2020 20:22 6,3 C 5,6 C 5,0 C 98 % 1032,5 hPa 0,0 l/m 0 min 0 min 0 W/m 6,4 km/h (2 Bft) 100,00 %
04.01.2020 20:24 6,3 C 5,6 C 5,0 C 98 % 1032,5 hPa 0,0 l/m 0 min 0 min 0 W/m 9,7 km/h (2 Bft) 100,00 %
04.01.2020 20:26 6,3 C 5,6 C 5,0 C 98 % 1032,5 hPa 0,0 l/m 0 min 0 min 0 W/m 9,7 km/h (2 Bft) 97,87 %
04.01.2020 20:28 6,3 C 5,6 C 5,0 C 98 % 1032,5 hPa 0,0 l/m 0 min 2 min 0 W/m 6,4 km/h (2 Bft) 97,87 %
04.01.2020 20:30 6,3 C 5,6 C 5,0 C 98 % 1032,5 hPa 0,0 l/m 0 min 2 min 0 W/m 3,2 km/h (1 Bft) 97,83 %
04.01.2020 20:32 6,3 C 5,6 C 5,0 C 98 % 1032,5 hPa 0,0 l/m 0 min 0 min 0 W/m 3,2 km/h (1 Bft) 97,87 %
04.01.2020 20:34 6,3 C 5,6 C 5,0 C 98 % 1032,6 hPa 0,0 l/m 0 min 0 min 0 W/m 0,0 km/h (0 Bft) 97,87 %
04.01.2020 20:36 6,3 C 5,6 C 5,0 C 98 % 1032,6 hPa 0,0 l/m 0 min 0 min 0 W/m 9,7 km/h (2 Bft) 95,74 %
04.01.2020 20:38 6,3 C 5,6 C 5,0 C 98 % 1032,5 hPa 0,0 l/m 0 min 0 min 0 W/m 9,7 km/h (2 Bft) 97,87 %
04.01.2020 20:40 6,3 C 5,6 C 5,0 C 98 % 1032,6 hPa 0,0 l/m 0 min 2 min 0 W/m 6,4 km/h (2 Bft) 97,87 %
04.01.2020 20:42 6,3 C 5,6 C 5,0 C 98 % 1032,6 hPa 0,0 l/m 0 min 2 min 0 W/m 9,7 km/h (2 Bft) 97,83 %
04.01.2020 20:44 6,3 C 5,6 C 5,0 C 98 % 1032,6 hPa 0,0 l/m 0 min 2 min 0 W/m 3,2 km/h (1 Bft) 97,87 %
04.01.2020 20:46 6,3 C 5,6 C 5,0 C 98 % 1032,6 hPa 0,0 l/m 0 min 2 min 0 W/m 3,2 km/h (1 Bft) 97,87 %
04.01.2020 20:48 6,3 C 5,6 C 5,0 C 98 % 1032,5 hPa 0,0 l/m 0 min 2 min 0 W/m 3,2 km/h (1 Bft) 95,74 %
04.01.2020 20:50 6,3 C 5,6 C 5,0 C 98 % 1032,5 hPa 0,2 l/m 0 min 0 min 0 W/m 0,0 km/h (0 Bft) 95,74 %
04.01.2020 20:52 6,3 C 5,6 C 5,0 C 98 % 1032,5 hPa 0,0 l/m 0 min 0 min 0 W/m 3,2 km/h (1 Bft) 95,74 %
04.01.2020 20:54 6,3 C 5,6 C 5,0 C 98 % 1032,5 hPa 0,0 l/m 0 min 0 min 0 W/m 9,7 km/h (2 Bft) 97,83 %
04.01.2020 20:56 6,3 C 5,6 C 5,0 C 98 % 1032,5 hPa 0,0 l/m 0 min 0 min 0 W/m 0,0 km/h (0 Bft) 97,87 %
04.01.2020 20:58 6,3 C 5,6 C 5,0 C 98 % 1032,4 hPa 0,0 l/m 0 min 0 min 0 W/m 3,2 km/h (1 Bft) 95,74 %
04.01.2020 21:00 6,3 C 5,6 C 5,0 C 98 % 1032,5 hPa 0,0 l/m 0 min 2 min 0 W/m 19,3 km/h (3 Bft) 97,87 %
04.01.2020 21:02 6,3 C 5,0 C 5,0 C 98 % 1032,5 hPa 0,0 l/m 0 min 0 min 0 W/m 9,7 km/h (2 Bft) 95,74 %
04.01.2020 21:04 6,3 C 5,0 C 5,0 C 98 % 1032,5 hPa 0,0 l/m 0 min 0 min 0 W/m 3,2 km/h (1 Bft) 95,74 %
04.01.2020 21:06 6,3 C 5,0 C 5,0 C 98 % 1032,6 hPa 0,0 l/m 0 min 0 min 0 W/m 9,7 km/h (2 Bft) 95,65 %
04.01.2020 21:08 6,3 C 5,0 C 4,4 C 98 % 1032,5 hPa 0,0 l/m 0 min 0 min 0 W/m 0,0 km/h (0 Bft) 93,62 %
04.01.2020 21:10 6,3 C 5,0 C 5,0 C 99 % 1032,5 hPa 0,0 l/m 0 min 2 min 0 W/m 22,5 km/h (4 Bft) 95,74 %
04.01.2020 21:12 6,3 C 5,0 C 4,4 C 99 % 1032,5 hPa 0,0 l/m 0 min 0 min 0 W/m 0,0 km/h (0 Bft) 97,87 %
04.01.2020 21:14 6,2 C 5,0 C 5,0 C 99 % 1032,7 hPa 0,0 l/m 0 min 0 min 0 W/m 3,2 km/h (1 Bft) 100,00 %
04.01.2020 21:16 6,2 C 5,6 C 5,0 C 99 % 1032,6 hPa 0,0 l/m 0 min 0 min 0 W/m 12,9 km/h (3 Bft) 95,74 %
04.01.2020 21:18 6,2 C 5,6 C 5,0 C 99 % 1032,6 hPa 0,0 l/m 0 min 0 min 0 W/m 0,0 km/h (0 Bft) 95,65 %
04.01.2020 21:20 6,2 C 5,6 C 5,0 C 99 % 1032,6 hPa 0,0 l/m 0 min 0 min 0 W/m 3,2 km/h (1 Bft) 93,62 %
04.01.2020 21:22 6,2 C 5,6 C 5,0 C 99 % 1032,6 hPa 0,0 l/m 0 min 0 min 0 W/m 3,2 km/h (1 Bft) 95,74 %
04.01.2020 21:24 6,2 C 5,6 C 5,0 C 99 % 1032,7 hPa 0,0 l/m 0 min 0 min 0 W/m 0,0 km/h (0 Bft) 95,74 %
04.01.2020 21:26 6,2 C 5,6 C 5,0 C 99 % 1032,7 hPa 0,0 l/m 0 min 0 min 0 W/m 3,2 km/h (1 Bft) 93,62 %
04.01.2020 21:28 6,2 C 5,6 C 5,0 C 99 % 1032,8 hPa 0,0 l/m 0 min 0 min 0 W/m 9,7 km/h (2 Bft) 91,49 %
04.01.2020 21:30 6,2 C 5,6 C 5,0 C 99 % 1032,8 hPa 0,0 l/m 0 min 0 min 0 W/m 6,4 km/h (2 Bft) 95,65 %
04.01.2020 21:32 6,2 C 5,6 C 5,0 C 99 % 1032,8 hPa 0,0 l/m 0 min 2 min 0 W/m 0,0 km/h (0 Bft) 95,74 %
04.01.2020 21:34 6,2 C 5,6 C 5,0 C 99 % 1032,8 hPa 0,0 l/m 0 min 0 min 0 W/m 3,2 km/h (1 Bft) 95,74 %
04.01.2020 21:36 6,3 C 5,6 C 5,0 C 99 % 1032,9 hPa 0,0 l/m 0 min 0 min 0 W/m 6,4 km/h (2 Bft) 95,74 %
04.01.2020 21:38 6,3 C 5,6 C 5,0 C 99 % 1032,9 hPa 0,0 l/m 0 min 2 min 0 W/m 6,4 km/h (2 Bft) 91,49 %
04.01.2020 21:40 6,3 C 5,6 C 5,0 C 99 % 1032,9 hPa 0,0 l/m 0 min 0 min 0 W/m 3,2 km/h (1 Bft) 93,48 %
04.01.2020 21:42 6,3 C 5,6 C 5,0 C 99 % 1033,0 hPa 0,0 l/m 0 min 0 min 0 W/m 0,0 km/h (0 Bft) 95,74 %
04.01.2020 21:44 6,3 C 5,6 C 5,0 C 99 % 1032,9 hPa 0,0 l/m 0 min 0 min 0 W/m 0,0 km/h (0 Bft) 93,62 %
04.01.2020 21:46 6,3 C 5,6 C 5,0 C 99 % 1032,9 hPa 0,0 l/m 0 min 0 min 0 W/m 3,2 km/h (1 Bft) 95,74 %
04.01.2020 21:48 6,3 C 5,6 C 5,0 C 99 % 1032,9 hPa 0,0 l/m 0 min 0 min 0 W/m 6,4 km/h (2 Bft) 95,74 %
04.01.2020 21:50 6,3 C 5,6 C 5,0 C 99 % 1033,0 hPa 0,0 l/m 0 min 0 min 0 W/m 0,0 km/h (0 Bft) 95,74 %
04.01.2020 21:52 6,3 C 5,6 C 5,0 C 99 % 1033,0 hPa 0,0 l/m 0 min 0 min 0 W/m 3,2 km/h (1 Bft) 95,65 %
04.01.2020 21:54 6,3 C 5,6 C 5,0 C 99 % 1033,1 hPa 0,0 l/m 0 min 0 min 0 W/m 6,4 km/h (2 Bft) 95,74 %
04.01.2020 21:56 6,3 C 5,6 C 5,0 C 99 % 1033,1 hPa 0,0 l/m 0 min 0 min 0 W/m 3,2 km/h (1 Bft) 95,74 %
04.01.2020 21:58 6,3 C 5,6 C 5,0 C 99 % 1033,1 hPa 0,0 l/m 0 min 0 min 0 W/m 3,2 km/h (1 Bft) 97,87 %
04.01.2020 22:00 6,3 C 5,6 C 5,0 C 99 % 1033,2 hPa 0,0 l/m 0 min 0 min 0 W/m 6,4 km/h (2 Bft) 96,30 %
04.01.2020 22:02 6,3 C 5,6 C 5,0 C 99 % 1033,2 hPa 0,0 l/m 0 min 0 min 0 W/m 9,7 km/h (2 Bft) 97,96 %
04.01.2020 22:04 6,3 C 5,6 C 5,0 C 99 % 1033,3 hPa 0,0 l/m 0 min 0 min 0 W/m 19,3 km/h (3 Bft) 95,74 %
04.01.2020 22:06 6,3 C 5,6 C 5,0 C 99 % 1033,3 hPa 0,0 l/m 0 min 0 min 0 W/m 0,0 km/h (0 Bft) 97,87 %
04.01.2020 22:08 6,3 C 5,6 C 5,0 C 99 % 1033,3 hPa 0,0 l/m 0 min 0 min 0 W/m 6,4 km/h (2 Bft) 97,87 %
04.01.2020 22:10 6,3 C 5,6 C 5,0 C 99 % 1033,3 hPa 0,0 l/m 0 min 0 min 0 W/m 22,5 km/h (4 Bft) 97,30 %
04.01.2020 22:12 6,3 C 5,6 C 5,0 C 99 % 1033,2 hPa 0,0 l/m 0 min 0 min 0 W/m 0,0 km/h (0 Bft) 100,00 %
04.01.2020 22:14 6,3 C 5,6 C 5,0 C 99 % 1033,2 hPa 0,0 l/m 0 min 0 min 0 W/m 9,7 km/h (2 Bft) 100,00 %
04.01.2020 22:16 6,3 C 5,6 C 5,0 C 99 % 1033,3 hPa 0,0 l/m 0 min 0 min 0 W/m 3,2 km/h (1 Bft) 97,83 %
04.01.2020 22:18 6,3 C 5,6 C 5,0 C 99 % 1033,3 hPa 0,0 l/m 0 min 0 min 0 W/m 3,2 km/h (1 Bft) 93,62 %
04.01.2020 22:20 6,3 C 5,6 C 5,0 C 99 % 1033,3 hPa 0,0 l/m 0 min 0 min 0 W/m 6,4 km/h (2 Bft) 100,00 %
04.01.2020 22:22 6,3 C 5,6 C 5,0 C 99 % 1033,3 hPa 0,0 l/m 0 min 0 min 0 W/m 6,4 km/h (2 Bft) 100,00 %
04.01.2020 22:24 6,3 C 5,6 C 5,0 C 99 % 1033,3 hPa 0,0 l/m 0 min 0 min 0 W/m 3,2 km/h (1 Bft) 100,00 %
04.01.2020 22:26 6,3 C 5,6 C 5,0 C 99 % 1033,4 hPa 0,0 l/m 0 min 0 min 0 W/m 25,7 km/h (4 Bft) 100,00 %
04.01.2020 22:28 6,3 C 5,6 C 5,0 C 99 % 1033,4 hPa 0,0 l/m 0 min 0 min 0 W/m 9,7 km/h (2 Bft) 100,00 %
04.01.2020 22:30 6,3 C 5,6 C 5,0 C 99 % 1033,4 hPa 0,0 l/m 0 min 0 min 0 W/m 3,2 km/h (1 Bft) 100,00 %
04.01.2020 22:32 6,3 C 5,6 C 5,0 C 99 % 1033,4 hPa 0,0 l/m 0 min 0 min 0 W/m 3,2 km/h (1 Bft) 96,30 %
04.01.2020 22:34 6,3 C 5,6 C 5,0 C 99 % 1033,5 hPa 0,0 l/m 0 min 0 min 0 W/m 3,2 km/h (1 Bft) 100,00 %
04.01.2020 22:36 6,3 C 5,6 C 5,0 C 99 % 1033,4 hPa 0,0 l/m 0 min 0 min 0 W/m 3,2 km/h (1 Bft) 100,00 %
04.01.2020 22:38 6,3 C 5,6 C 5,0 C 99 % 1033,4 hPa 0,0 l/m 0 min 0 min 0 W/m 3,2 km/h (1 Bft) 100,00 %
04.01.2020 22:40 6,3 C 5,6 C 5,0 C 99 % 1033,4 hPa 0,0 l/m 0 min 0 min 0 W/m 3,2 km/h (1 Bft) 100,00 %
04.01.2020 22:42 6,3 C 5,6 C 5,0 C 99 % 1033,3 hPa 0,0 l/m 0 min 0 min 0 W/m 3,2 km/h (1 Bft) 100,00 %
04.01.2020 22:44 6,3 C 5,6 C 5,0 C 99 % 1033,3 hPa 0,0 l/m 0 min 0 min 0 W/m 0,0 km/h (0 Bft) 97,87 %
04.01.2020 22:46 6,3 C 5,6 C 5,0 C 99 % 1033,4 hPa 0,0 l/m 0 min 0 min 0 W/m 6,4 km/h (2 Bft) 100,00 %
04.01.2020 22:48 6,3 C 5,6 C 5,0 C 99 % 1033,3 hPa 0,0 l/m 0 min 0 min 0 W/m 9,7 km/h (2 Bft) 100,00 %
04.01.2020 22:50 6,3 C 5,6 C 5,0 C 99 % 1033,3 hPa 0,0 l/m 0 min 0 min 0 W/m 0,0 km/h (0 Bft) 100,00 %
04.01.2020 22:52 6,3 C 5,6 C 5,0 C 99 % 1033,3 hPa 0,0 l/m 0 min 0 min 0 W/m 6,4 km/h (2 Bft) 100,00 %
04.01.2020 22:54 6,3 C 5,6 C 5,0 C 99 % 1033,4 hPa 0,0 l/m 0 min 0 min 0 W/m 6,4 km/h (2 Bft) 100,00 %
04.01.2020 22:56 6,3 C 5,6 C 5,0 C 99 % 1033,4 hPa 0,0 l/m 0 min 0 min 0 W/m 3,2 km/h (1 Bft) 100,00 %
04.01.2020 22:58 6,3 C 5,6 C 5,0 C 99 % 1033,4 hPa 0,0 l/m 0 min 0 min 0 W/m 0,0 km/h (0 Bft) 100,00 %
04.01.2020 23:00 6,3 C 5,6 C 5,0 C 99 % 1033,5 hPa 0,0 l/m 0 min 0 min 0 W/m 3,2 km/h (1 Bft) 100,00 %
04.01.2020 23:02 6,3 C 5,6 C 5,0 C 99 % 1033,5 hPa 0,0 l/m 0 min 0 min 0 W/m 12,9 km/h (3 Bft) 100,00 %
04.01.2020 23:04 6,3 C 5,6 C 5,0 C 99 % 1033,6 hPa 0,0 l/m 0 min 0 min 0 W/m 3,2 km/h (1 Bft) 100,00 %
04.01.2020 23:06 6,3 C 5,6 C 5,0 C 99 % 1033,6 hPa 0,0 l/m 0 min 0 min 0 W/m 0,0 km/h (0 Bft) 100,00 %
04.01.2020 23:08 6,3 C 5,6 C 5,0 C 99 % 1033,6 hPa 0,0 l/m 0 min 0 min 0 W/m 3,2 km/h (1 Bft) 100,00 %
04.01.2020 23:10 6,3 C 5,6 C 5,0 C 99 % 1033,5 hPa 0,0 l/m 0 min 0 min 0 W/m 0,0 km/h (0 Bft) 100,00 %
04.01.2020 23:12 6,3 C 5,6 C 5,0 C 99 % 1033,6 hPa 0,0 l/m 0 min 0 min 0 W/m 3,2 km/h (1 Bft) 97,30 %
04.01.2020 23:14 6,3 C 5,6 C 5,0 C 99 % 1033,6 hPa 0,0 l/m 0 min 0 min 0 W/m 3,2 km/h (1 Bft) 100,00 %
04.01.2020 23:16 6,3 C 5,6 C 5,0 C 99 % 1033,6 hPa 0,0 l/m 0 min 0 min 0 W/m 0,0 km/h (0 Bft) 100,00 %
04.01.2020 23:18 6,3 C 5,6 C 5,0 C 99 % 1033,7 hPa 0,0 l/m 0 min 0 min 0 W/m 6,4 km/h (2 Bft) 100,00 %
04.01.2020 23:20 6,3 C 5,6 C 5,0 C 99 % 1033,6 hPa 0,0 l/m 0 min 0 min 0 W/m 0,0 km/h (0 Bft) 100,00 %
04.01.2020 23:22 6,3 C 5,6 C 5,0 C 99 % 1033,6 hPa 0,0 l/m 0 min 0 min 0 W/m 3,2 km/h (1 Bft) 100,00 %
04.01.2020 23:24 6,3 C 5,6 C 5,0 C 99 % 1033,7 hPa 0,0 l/m 0 min 0 min 0 W/m 3,2 km/h (1 Bft) 100,00 %
04.01.2020 23:26 6,3 C 5,6 C 5,0 C 99 % 1033,7 hPa 0,0 l/m 0 min 0 min 0 W/m 0,0 km/h (0 Bft) 97,30 %
04.01.2020 23:28 6,3 C 5,6 C 5,0 C 99 % 1033,6 hPa 0,0 l/m 0 min 0 min 0 W/m 0,0 km/h (0 Bft) 100,00 %
04.01.2020 23:30 6,3 C 5,6 C 5,0 C 99 % 1033,6 hPa 0,0 l/m 0 min 0 min 0 W/m 12,9 km/h (3 Bft) 100,00 %
04.01.2020 23:32 6,3 C 5,6 C 5,0 C 99 % 1033,7 hPa 0,0 l/m 0 min 0 min 0 W/m 0,0 km/h (0 Bft) 100,00 %
04.01.2020 23:34 6,3 C 5,6 C 5,0 C 99 % 1033,6 hPa 0,0 l/m 0 min 0 min 0 W/m 0,0 km/h (0 Bft) 100,00 %
04.01.2020 23:36 6,3 C 5,6 C 5,0 C 99 % 1033,7 hPa 0,0 l/m 0 min 0 min 0 W/m 3,2 km/h (1 Bft) 100,00 %
04.01.2020 23:38 6,3 C 5,6 C 5,0 C 99 % 1033,7 hPa 0,0 l/m 0 min 0 min 0 W/m 3,2 km/h (1 Bft) 100,00 %
04.01.2020 23:40 6,3 C 5,6 C 5,0 C 99 % 1033,7 hPa 0,0 l/m 0 min 0 min 0 W/m 3,2 km/h (1 Bft) 100,00 %
04.01.2020 23:42 6,3 C 5,6 C 5,0 C 99 % 1033,7 hPa 0,0 l/m 0 min 0 min 0 W/m 0,0 km/h (0 Bft) 95,74 %
04.01.2020 23:44 6,3 C 5,6 C 5,0 C 99 % 1033,7 hPa 0,0 l/m 0 min 0 min 0 W/m 3,2 km/h (1 Bft) 95,74 %
04.01.2020 23:46 6,3 C 5,6 C 5,0 C 99 % 1033,8 hPa 0,0 l/m 0 min 0 min 0 W/m 3,2 km/h (1 Bft) 93,62 %
04.01.2020 23:48 6,3 C 5,6 C 5,0 C 99 % 1033,8 hPa 0,0 l/m 0 min 0 min 0 W/m 3,2 km/h (1 Bft) 97,83 %
04.01.2020 23:50 6,3 C 5,6 C 5,0 C 99 % 1033,7 hPa 0,0 l/m 0 min 0 min 0 W/m 0,0 km/h (0 Bft) 97,87 %
04.01.2020 23:52 6,3 C 5,6 C 5,0 C 99 % 1033,8 hPa 0,0 l/m 0 min 0 min 0 W/m 0,0 km/h (0 Bft) 97,87 %
04.01.2020 23:54 6,3 C 5,6 C 5,0 C 99 % 1033,8 hPa 0,0 l/m 0 min 0 min 0 W/m 3,2 km/h (1 Bft) 93,62 %
04.01.2020 23:56 6,3 C 5,6 C 5,0 C 99 % 1033,8 hPa 0,0 l/m 0 min 0 min 0 W/m 3,2 km/h (1 Bft) 97,87 %
04.01.2020 23:58 6,3 C 5,6 C 5,0 C 99 % 1033,8 hPa 0,0 l/m 0 min 0 min 0 W/m 3,2 km/h (1 Bft) 95,74 %
_ Min-Zeit 02:26 00:30 01:32 15:04 00:00 - - - - 00:00 12:48
Minimum _ 3,1 C 2,2 C 1,7 C 92 % 1028,4 hPa - - - - 0,0 km/h (0 Bft) 51,16 %
_ Max-Zeit 15:44 14:32 12:26 21:10 23:46 08:50 12:26 17:56 12:26 13:16 00:00
Maximum _ 7,0 C 6,7 C 5,6 C 99 % 1033,8 hPa 0,2 l/m 2 min 2 min 162 W/m 29,0 km/h
W (5 Bft)
100,00 %
Durchschnitt _ 5,1 C 4,5 C 3,9 C 97 % 1030,2 hPa #0,4 l/m #2 min. #32 min. 43 W/m 6,7 km/h (2 Bft) 97,26 %
© 2020 W. Hausmann